Dirección General De Aeronáutica Civil

Dirección Meteorológica de Chile - Servicios Climáticos

Informe General de Control de Calidad de la Estación

Listado de niveles de control de calidad para algunos parámetros
Estación Alto Palena Ad. (430004)
Fecha de Revisión de los datos :

Elementos

Registros Niveles de Control Total
Nivel 0 Nivel 1 Nivel 2 Nivel 3 Errores Porcentaje
01 Temperatura del Aire Seco 221.166 0 . 136 0.06 % 0 . 0 . 136 0.06 %
02 Temperatura de Rocío 98.150 0 . 0 . 0 . 0 . 0 0.00 %
03 Humedad Relativa del Aire 204.863 0 . 0 . 0 . 0 . 0 0.00 %
04 Temperatura Máxima PM 20.688 0 . 0 . 168 0.81 % 0 . 168 0.81 %
05 Temperatura Mínima AM 20.920 0 . 0 . 98 0.47 % 0 . 98 0.47 %
06 Viento a 10 m. de Altura 104.237 0 . 1 0.00 % 0 . 0 . 1 0.00 %
07 Agua Caida, Acumulada 6 Horas 74.602 0 . 316 0.42 % 0 . 0 . 316 0.42 %
08 Presión Atm. a Nivel de Estación (QFE) 191.302 0 . 0 . 0 . 0 . 0 0.00 %
09 Presión Atm. a Nivel Medio del Mar (QFF) 94.481 0 . 0 . 0 . 0 . 0 0.00 %
10 Presión Atm. Estándar OACI (QNH) 161.380 1 0.00 % 0 . 0 . 0 . 1 0.00 %
11 Tiempo Pasado Sinóptico 7.232 0 . 0 . 0 . 0 . 0 0.00 %
12 Tiempo Presente Sinóptico 110.849 0 . 5 0.00 % 0 . 0 . 5 0.00 %

Totales

1.309.870 . 0.0001 % . 0.0350 % . 0.0203 % . 0.0000 % 725 0.0553 %

Detalle de Errores Encontrados

Nivel Fecha del Dato Descripción Información Error Fecha Ingreso
0 2015-02-03 21:08:00 qnh (Presión a nivel estandar) debe ser numérico, entre 300 y 1100 63.0 2015-02-03 21:13:00
Errores del Nivel 1
Nivel Fecha del Dato Descripción Información Error Fecha Ingreso
1 1968-02-14 12:00:00 (ts - td > 5.0) y ((ww >= 40 y ww <= 49)) 40 2012-02-09 01:48:00
1 1970-10-24 18:00:00 ts > 5.0 y ((ww >= 70 y ww <= 79) || (ww >= 85 y ww <= 88))) 88 2012-02-09 01:45:00
1 1973-04-06 12:00:00 ts > 5.0 y ((ww >= 70 y ww <= 79) || (ww >= 85 y ww <= 88))) 87 2012-02-09 01:35:00
1 1977-06-20 00:00:00 (ts - td > 5.0) y ((ww >= 40 y ww <= 49)) 46 2012-02-09 01:24:00
1 1979-05-19 18:00:00 ts > 3.0 y ( (ww >= 48 y ww <= 49) o (ww >= 56 y ww <= 57) o (ww >=66 y ww <= 67)) 66 2012-02-09 01:18:00
1 1970-02-18 00:00:00 Ts debe ser mayor o igual a Td Ts=2.0 - Td=21.5 2011-09-01 18:06:00
1 1970-03-25 12:00:00 Ts debe ser mayor o igual a Td Ts=0.0 - Td=0.2 2011-09-01 18:06:00
1 1970-04-24 00:00:00 Ts debe ser mayor o igual a Td Ts=8.0 - Td=9.3 2011-09-01 18:07:00
1 1970-06-24 15:00:00 Ts debe ser mayor o igual a Td Ts=-1.0 - Td=-0.5 2011-09-01 18:08:00
1 1970-06-27 21:00:00 Ts debe ser mayor o igual a Td Ts=2.0 - Td=24.7 2011-09-01 18:08:00
1 1970-06-29 09:00:00 Ts debe ser mayor o igual a Td Ts=0.4 - Td=1.1 2011-09-01 18:08:00
1 1970-06-30 00:00:00 Ts debe ser mayor o igual a Td Ts=-1.0 - Td=3.6 2011-09-01 18:08:00
1 1970-07-22 09:00:00 Ts debe ser mayor o igual a Td Ts=0.5 - Td=9.8 2011-09-01 18:08:00
1 1970-10-10 09:00:00 Ts debe ser mayor o igual a Td Ts=5.0 - Td=13.3 2011-09-01 18:10:00
1 1970-10-11 15:00:00 Ts debe ser mayor o igual a Td Ts=1.0 - Td=10.8 2011-09-01 18:10:00
1 1970-11-06 18:00:00 Ts debe ser mayor o igual a Td Ts=5.1 - Td=12.9 2011-09-01 18:10:00
1 1970-12-07 09:00:00 Ts debe ser mayor o igual a Td Ts=0.6 - Td=9.1 2011-09-01 18:11:00
1 1971-03-01 18:00:00 Ts debe ser mayor o igual a Td Ts=20.6 - Td=20.9 2011-09-01 18:24:00
1 1971-04-07 15:00:00 Ts debe ser mayor o igual a Td Ts=5.6 - Td=8.5 2011-09-01 18:24:00
1 1971-04-14 12:00:00 Ts debe ser mayor o igual a Td Ts=7.0 - Td=13.0 2011-09-01 18:24:00
1 1971-04-20 09:00:00 Ts debe ser mayor o igual a Td Ts=2.0 - Td=21.6 2011-09-01 18:25:00
1 1971-04-20 12:00:00 Ts debe ser mayor o igual a Td Ts=2.0 - Td=21.6 2011-09-01 18:25:00
1 1971-04-23 09:00:00 Ts debe ser mayor o igual a Td Ts=1.0 - Td=13.4 2011-09-01 18:25:00
1 1971-05-06 00:00:00 Ts debe ser mayor o igual a Td Ts=2.6 - Td=18.9 2011-09-01 18:25:00
1 1971-05-06 12:00:00 Ts debe ser mayor o igual a Td Ts=-3.5 - Td=10.5 2011-09-01 18:25:00
1 1971-05-06 15:00:00 Ts debe ser mayor o igual a Td Ts=-2.3 - Td=3.1 2011-09-01 18:25:00
1 1971-05-11 00:00:00 Ts debe ser mayor o igual a Td Ts=1.0 - Td=14.7 2011-09-01 18:25:00
1 1971-05-27 12:00:00 Ts debe ser mayor o igual a Td Ts=2.0 - Td=3.1 2011-09-01 18:25:00
1 1971-06-05 00:00:00 Ts debe ser mayor o igual a Td Ts=1.8 - Td=18.1 2011-09-01 18:25:00
1 1971-06-07 00:00:00 Ts debe ser mayor o igual a Td Ts=1.7 - Td=15.7 2011-09-01 18:25:00
1 1971-07-19 21:00:00 Ts debe ser mayor o igual a Td Ts=3.4 - Td=4.5 2011-09-01 18:26:00
1 1971-09-15 18:00:00 Ts debe ser mayor o igual a Td Ts=7.5 - Td=19.5 2011-09-01 18:27:00
1 1971-09-19 09:00:00 Ts debe ser mayor o igual a Td Ts=3.3 - Td=12.4 2011-09-01 18:27:00
1 1971-11-19 09:00:00 Ts debe ser mayor o igual a Td Ts=7.2 - Td=10.3 2011-09-01 18:28:00
1 1972-03-25 12:00:00 Ts debe ser mayor o igual a Td Ts=-0.5 - Td=3.0 2011-09-01 18:44:00
1 1972-05-03 09:00:00 Ts debe ser mayor o igual a Td Ts=0.0 - Td=0.2 2011-09-01 18:45:00
1 1972-05-09 00:00:00 Ts debe ser mayor o igual a Td Ts=2.0 - Td=12.7 2011-09-01 18:45:00
1 1972-05-19 12:00:00 Ts debe ser mayor o igual a Td Ts=-2.6 - Td=8.2 2011-09-01 18:45:00
1 1972-05-30 18:00:00 Ts debe ser mayor o igual a Td Ts=1.2 - Td=17.1 2011-09-01 18:45:00
1 1972-06-26 09:00:00 Ts debe ser mayor o igual a Td Ts=-2.0 - Td=-1.5 2011-09-01 18:46:00
1 1972-06-28 18:00:00 Ts debe ser mayor o igual a Td Ts=0.3 - Td=1.9 2011-09-01 18:46:00
1 1972-07-05 00:00:00 Ts debe ser mayor o igual a Td Ts=1.0 - Td=14.6 2011-09-01 18:46:00
1 1972-07-05 09:00:00 Ts debe ser mayor o igual a Td Ts=1.0 - Td=14.6 2011-09-01 18:46:00
1 1972-07-05 12:00:00 Ts debe ser mayor o igual a Td Ts=1.0 - Td=14.6 2011-09-01 18:46:00
1 1972-07-05 15:00:00 Ts debe ser mayor o igual a Td Ts=1.0 - Td=14.6 2011-09-01 18:46:00
1 1972-07-17 09:00:00 Ts debe ser mayor o igual a Td Ts=-5.0 - Td=-2.2 2011-09-01 18:47:00
1 1972-07-17 12:00:00 Ts debe ser mayor o igual a Td Ts=-5.0 - Td=-2.2 2011-09-01 18:47:00
1 1972-07-20 09:00:00 Ts debe ser mayor o igual a Td Ts=-2.5 - Td=-1.2 2011-09-01 18:47:00
1 1972-07-20 12:00:00 Ts debe ser mayor o igual a Td Ts=-2.5 - Td=-1.2 2011-09-01 18:47:00
1 1972-07-20 15:00:00 Ts debe ser mayor o igual a Td Ts=0.0 - Td=3.8 2011-09-01 18:47:00
1 1972-08-03 00:00:00 Ts debe ser mayor o igual a Td Ts=3.0 - Td=5.1 2011-09-01 18:47:00
1 1972-09-02 21:00:00 Ts debe ser mayor o igual a Td Ts=1.0 - Td=8.8 2011-09-01 18:48:00
1 1972-09-15 12:00:00 Ts debe ser mayor o igual a Td Ts=-0.8 - Td=2.3 2011-09-01 18:48:00
1 1972-10-01 15:00:00 Ts debe ser mayor o igual a Td Ts=0.2 - Td=3.7 2011-09-01 18:48:00
1 1972-12-20 15:00:00 Ts debe ser mayor o igual a Td Ts=9.6 - Td=17.0 2011-09-01 18:50:00
1 1973-04-23 21:00:00 Ts debe ser mayor o igual a Td Ts=12.0 - Td=20.8 2011-09-01 19:06:00
1 1973-05-09 09:00:00 Ts debe ser mayor o igual a Td Ts=5.0 - Td=6.6 2011-09-01 19:07:00
1 1973-05-16 18:00:00 Ts debe ser mayor o igual a Td Ts=0.8 - Td=12.1 2011-09-01 19:07:00
1 1973-06-05 09:00:00 Ts debe ser mayor o igual a Td Ts=-4.0 - Td=1.0 2011-09-01 19:07:00
1 1973-06-05 12:00:00 Ts debe ser mayor o igual a Td Ts=-5.0 - Td=-4.4 2011-09-01 19:07:00
1 1973-06-05 21:00:00 Ts debe ser mayor o igual a Td Ts=4.2 - Td=16.5 2011-09-01 19:07:00
1 1973-06-08 12:00:00 Ts debe ser mayor o igual a Td Ts=1.0 - Td=9.6 2011-09-01 19:07:00
1 1973-06-15 15:00:00 Ts debe ser mayor o igual a Td Ts=6.0 - Td=7.7 2011-09-01 19:08:00
1 1973-07-22 15:00:00 Ts debe ser mayor o igual a Td Ts=-1.0 - Td=4.0 2011-09-01 19:08:00
1 1973-07-31 00:00:00 Ts debe ser mayor o igual a Td Ts=0.4 - Td=7.5 2011-09-01 19:09:00
1 1973-08-01 12:00:00 Ts debe ser mayor o igual a Td Ts=1.8 - Td=9.8 2011-09-01 19:09:00
1 1973-08-02 09:00:00 Ts debe ser mayor o igual a Td Ts=1.0 - Td=14.7 2011-09-01 19:09:00
1 1973-08-10 15:00:00 Ts debe ser mayor o igual a Td Ts=-0.6 - Td=-0.1 2011-09-01 19:09:00
1 1973-08-29 12:00:00 Ts debe ser mayor o igual a Td Ts=-3.0 - Td=-2.4 2011-09-01 19:09:00
1 1973-09-24 21:00:00 Ts debe ser mayor o igual a Td Ts=1.8 - Td=22.7 2011-09-01 19:10:00
1 1973-09-26 18:00:00 Ts debe ser mayor o igual a Td Ts=2.0 - Td=12.7 2011-09-01 19:10:00
1 1973-09-27 12:00:00 Ts debe ser mayor o igual a Td Ts=1.0 - Td=4.3 2011-09-01 19:10:00
1 1973-09-28 00:00:00 Ts debe ser mayor o igual a Td Ts=5.0 - Td=12.9 2011-09-01 19:10:00
1 1973-10-08 12:00:00 Ts debe ser mayor o igual a Td Ts=0.5 - Td=8.8 2011-09-01 19:10:00
1 1973-10-21 09:00:00 Ts debe ser mayor o igual a Td Ts=1.0 - Td=13.4 2011-09-01 19:10:00
1 1973-12-11 00:00:00 Ts debe ser mayor o igual a Td Ts=16.0 - Td=20.4 2011-09-01 19:12:00
1 1974-04-16 09:00:00 Ts debe ser mayor o igual a Td Ts=0.2 - Td=1.6 2011-09-01 19:16:00
1 1974-04-18 09:00:00 Ts debe ser mayor o igual a Td Ts=-2.0 - Td=-1.7 2011-09-01 19:16:00
1 1974-04-20 09:00:00 Ts debe ser mayor o igual a Td Ts=-2.8 - Td=2.0 2011-09-01 19:16:00
1 1974-04-24 12:00:00 Ts debe ser mayor o igual a Td Ts=1.2 - Td=5.8 2011-09-01 19:16:00
1 1974-06-30 00:00:00 Ts debe ser mayor o igual a Td Ts=2.5 - Td=3.4 2011-09-01 19:18:00
1 1974-07-25 00:00:00 Ts debe ser mayor o igual a Td Ts=0.2 - Td=1.2 2011-09-01 19:18:00
1 1974-09-11 09:00:00 Ts debe ser mayor o igual a Td Ts=-4.8 - Td=11.6 2011-09-01 19:19:00
1 1974-10-12 09:00:00 Ts debe ser mayor o igual a Td Ts=0.4 - Td=7.7 2011-09-01 19:19:00
1 1975-01-01 18:00:00 Ts debe ser mayor o igual a Td Ts=15.4 - Td=16.3 2011-09-01 19:23:00
1 1975-01-01 18:00:00 Ts debe ser mayor o igual a Td Ts=15.4 - Td=16.3 2011-09-01 19:23:00
1 1975-01-13 00:00:00 Ts debe ser mayor o igual a Td Ts=16.4 - Td=16.9 2011-09-01 19:23:00
1 1975-07-31 00:00:00 Ts debe ser mayor o igual a Td Ts=4.5 - Td=12.1 2011-09-01 19:26:00
1 1975-08-04 18:00:00 Ts debe ser mayor o igual a Td Ts=5.4 - Td=17.0 2011-09-01 19:26:00
1 1975-09-19 21:00:00 Ts debe ser mayor o igual a Td Ts=3.8 - Td=13.5 2011-09-01 19:27:00
1 1975-10-31 21:00:00 Ts debe ser mayor o igual a Td Ts=8.2 - Td=15.1 2011-09-01 19:28:00
1 1976-04-30 12:00:00 Ts debe ser mayor o igual a Td Ts=-0.1 - Td=0.6 2011-09-01 19:39:00
1 1976-05-22 15:00:00 Ts debe ser mayor o igual a Td Ts=6.0 - Td=7.7 2011-09-01 19:39:00
1 1976-05-29 12:00:00 Ts debe ser mayor o igual a Td Ts=5.0 - Td=13.1 2011-09-01 19:39:00
1 1976-05-29 15:00:00 Ts debe ser mayor o igual a Td Ts=6.4 - Td=12.2 2011-09-01 19:39:00
1 1976-05-30 00:00:00 Ts debe ser mayor o igual a Td Ts=8.8 - Td=9.2 2011-09-01 19:39:00
1 1976-06-19 21:00:00 Ts debe ser mayor o igual a Td Ts=0.1 - Td=0.8 2011-09-01 19:39:00
1 1976-06-25 12:00:00 Ts debe ser mayor o igual a Td Ts=2.1 - Td=3.4 2011-09-01 19:40:00
1 1976-07-01 12:00:00 Ts debe ser mayor o igual a Td Ts=1.2 - Td=1.7 2011-09-01 19:40:00
1 1976-07-07 12:00:00 Ts debe ser mayor o igual a Td Ts=1.0 - Td=1.7 2011-09-01 19:40:00
1 1976-07-11 00:00:00 Ts debe ser mayor o igual a Td Ts=1.2 - Td=1.9 2011-09-01 19:40:00
1 1976-07-14 18:00:00 Ts debe ser mayor o igual a Td Ts=6.5 - Td=11.9 2011-09-01 19:40:00
1 1976-07-21 15:00:00 Ts debe ser mayor o igual a Td Ts=2.3 - Td=21.4 2011-09-01 19:40:00
1 1976-09-06 12:00:00 Ts debe ser mayor o igual a Td Ts=-1.6 - Td=5.8 2011-09-01 19:41:00
1 1976-10-30 21:00:00 Ts debe ser mayor o igual a Td Ts=15.8 - Td=16.9 2011-09-01 19:42:00
1 1977-01-11 09:00:00 Ts debe ser mayor o igual a Td Ts=3.8 - Td=15.5 2011-09-01 19:48:00
1 1977-02-06 15:00:00 Ts debe ser mayor o igual a Td Ts=3.3 - Td=21.3 2011-09-01 19:49:00
1 1977-04-22 12:00:00 Ts debe ser mayor o igual a Td Ts=12.1 - Td=13.4 2011-09-01 19:51:00
1 1977-06-15 09:00:00 Ts debe ser mayor o igual a Td Ts=0.0 - Td=0.2 2011-09-01 19:52:00
1 1977-08-22 00:00:00 Ts debe ser mayor o igual a Td Ts=6.6 - Td=11.9 2011-09-01 19:54:00
1 1977-11-03 21:00:00 Ts debe ser mayor o igual a Td Ts=12.8 - Td=14.7 2011-09-01 19:56:00
1 1977-12-05 15:00:00 Ts debe ser mayor o igual a Td Ts=5.9 - Td=8.2 2011-09-01 19:56:00
1 1978-03-07 09:00:00 Ts debe ser mayor o igual a Td Ts=7.3 - Td=7.7 2011-09-01 20:01:00
1 1978-03-16 09:00:00 Ts debe ser mayor o igual a Td Ts=0.9 - Td=14.2 2011-09-01 20:02:00
1 1978-05-17 00:00:00 Ts debe ser mayor o igual a Td Ts=5.7 - Td=6.1 2011-09-01 20:03:00
1 1978-05-17 00:00:00 HR (Humedad Relativa) es igual a 100% y Ts <> Td 5.7 - 6.1 2011-09-01 20:03:00
1 1978-06-07 15:00:00 Ts debe ser mayor o igual a Td Ts=-0.5 - Td=2.7 2011-09-01 20:03:00
1 1978-06-19 00:00:00 Ts debe ser mayor o igual a Td Ts=1.1 - Td=14.1 2011-09-01 20:03:00
1 1978-06-25 09:00:00 Ts debe ser mayor o igual a Td Ts=0.0 - Td=1.4 2011-09-01 20:04:00
1 1978-07-30 12:00:00 Ts debe ser mayor o igual a Td Ts=-1.9 - Td=6.7 2011-09-01 20:05:00
1 1978-08-05 15:00:00 Ts debe ser mayor o igual a Td Ts=0.1 - Td=1.8 2011-09-01 20:05:00
1 1978-08-05 15:00:00 HR (Humedad Relativa) es igual a 100% y Ts <> Td 0.1 - 1.8 2011-09-01 20:05:00
1 1978-08-21 09:00:00 Ts debe ser mayor o igual a Td Ts=0.2 - Td=0.4 2011-09-01 20:05:00
1 1978-08-24 09:00:00 Ts debe ser mayor o igual a Td Ts=2.7 - Td=3.1 2011-09-01 20:05:00
1 1978-08-24 12:00:00 Ts debe ser mayor o igual a Td Ts=2.9 - Td=3.3 2011-09-01 20:05:00
1 1978-08-26 18:00:00 Ts debe ser mayor o igual a Td Ts=7.6 - Td=8.4 2011-09-01 20:05:00
1 1978-08-30 12:00:00 Ts debe ser mayor o igual a Td Ts=0.6 - Td=1.3 2011-09-01 20:05:00
1 1978-10-03 12:00:00 Ts debe ser mayor o igual a Td Ts=0.3 - Td=5.1 2011-09-01 20:06:00
1 1978-10-05 21:00:00 Ts debe ser mayor o igual a Td Ts=12.2 - Td=14.3 2011-09-01 20:06:00
1 1978-11-12 21:00:00 Ts debe ser mayor o igual a Td Ts=3.9 - Td=18.4 2011-09-01 20:07:00
1 1978-11-13 18:00:00 Ts debe ser mayor o igual a Td Ts=3.9 - Td=19.0 2011-09-01 20:07:00
1 1979-01-10 18:00:00 Ts debe ser mayor o igual a Td Ts=2.0 - Td=19.3 2011-09-01 20:12:00
1 1979-02-25 12:00:00 Ts debe ser mayor o igual a Td Ts=4.6 - Td=10.5 2011-09-01 20:13:00
1 1979-04-14 12:00:00 Ts debe ser mayor o igual a Td Ts=5.2 - Td=5.4 2011-09-01 20:14:00
1 1979-06-15 00:00:00 Ts debe ser mayor o igual a Td Ts=3.0 - Td=4.5 2011-09-01 20:15:00
1 1979-06-18 00:00:00 Ts debe ser mayor o igual a Td Ts=0.9 - Td=14.2 2011-09-01 20:15:00
1 1979-08-03 12:00:00 Ts debe ser mayor o igual a Td Ts=1.4 - Td=16.9 2011-09-01 20:16:00
1 1979-11-11 15:00:00 Ts debe ser mayor o igual a Td Ts=3.9 - Td=11.6 2011-09-01 20:18:00
1 1979-12-04 15:00:00 Ts debe ser mayor o igual a Td Ts=8.6 - Td=16.4 2011-09-01 20:18:00
1 1979-12-05 00:00:00 Ts debe ser mayor o igual a Td Ts=7.6 - Td=13.5 2011-09-01 20:18:00
1 1979-12-16 15:00:00 Ts debe ser mayor o igual a Td Ts=6.6 - Td=15.2 2011-09-01 20:18:00
1 1979-12-03 21:00:00 ff < 19kt y ((ww >= 31 y ww <= 35) o (ww == 37 o ww == 39 o ww >= 98))) 2011-09-01 20:18:00
1 2011-11-25 18:00:00 rrr = s/p y WW = 2 w1=8 w2=2 0.0 2011-11-25 18:53:00
1 2012-01-18 12:00:00 rrr = trazas y WW = 2 w1=0 w2=0 0.0 2012-01-18 11:54:00
1 2012-02-29 18:00:00 rrr = trazas y WW = 2 w1=2 w2=1 0.0 2012-02-29 17:52:00
1 2012-03-19 12:00:00 rrr = 0.6 y WW = 2 w1=0 w2=0 0.6 2012-03-19 11:52:00
1 2012-03-27 18:00:00 rrr = trazas y WW = 2 w1=1 w2=1 0.0 2012-03-27 17:53:00
1 2012-03-28 18:00:00 rrr = trazas y WW = 1 w1=2 w2=1 0.0 2012-03-28 17:53:00
1 2012-04-09 18:00:00 rrr = trazas y WW = 2 w1=2 w2=1 0.0 2012-04-09 17:49:00
1 2012-04-11 18:00:00 rrr = trazas y WW = 2 w1=1 w2=0 0.0 2012-04-11 17:54:00
1 2012-04-19 12:00:00 rrr = s/p y WW = 2 w1=8 w2=2 0.0 2012-04-19 11:57:00
1 2012-04-20 12:00:00 rrr = 0.2 y WW = 2 w1=1 w2=1 0.2 2012-04-20 11:57:00
1 2012-07-11 18:00:00 rrr = s/p y WW = 2 w1=6 w2=2 0.0 2012-07-11 18:34:00
1 2012-07-18 18:00:00 rrr = s/p y WW = 2 w1=8 w2=2 0.0 2012-07-18 18:19:00
1 2012-10-03 18:00:00 rrr = s/p y WW = 2 w1=8 w2=2 0.0 2012-10-03 17:58:00
1 2012-12-17 18:00:00 rrr = trazas y WW = 2 w1=2 w2=2 0.0 2012-12-17 17:54:00
1 2013-01-02 12:00:00 rrr = trazas y WW = 0 w1=0 w2=0 0.0 2013-01-02 11:57:00
1 2013-01-08 18:00:00 rrr = trazas y WW = 2 w1=2 w2=2 0.0 2013-01-08 17:59:00
1 2013-01-24 18:00:00 rrr = trazas y WW = 2 w1=2 w2=1 0.0 2013-01-24 17:57:00
1 2013-01-28 18:00:00 rrr = trazas y WW = 0 w1=0 w2=0 0.0 2013-01-28 18:03:00
1 2013-02-18 12:00:00 rrr = trazas y WW = 2 w1=2 w2=2 0.0 2013-02-18 11:56:00
1 2013-02-20 18:00:00 rrr = trazas y WW = 3 w1=0 w2=0 0.0 2013-02-20 17:56:00
1 2013-02-26 18:00:00 rrr = trazas y WW = 2 w1=2 w2=2 0.0 2013-02-26 17:55:00
1 2013-03-06 18:00:00 rrr = s/p y WW = 2 w1=8 w2=2 0.0 2013-03-06 17:54:00
1 2013-03-12 18:00:00 rrr = trazas y WW = 2 w1=1 w2=1 0.0 2013-03-12 17:59:00
1 2013-03-13 18:00:00 rrr = trazas y WW = 2 w1=1 w2=1 0.0 2013-03-13 18:07:00
1 2013-03-14 18:00:00 rrr = trazas y WW = 2 w1=1 w2=0 0.0 2013-03-14 17:58:00
1 2013-03-19 18:00:00 rrr = trazas y WW = 2 w1=1 w2=1 0.0 2013-03-19 17:51:00
1 2013-03-20 18:00:00 rrr = trazas y WW = 2 w1=2 w2=2 0.0 2013-03-20 17:58:00
1 2013-03-22 12:00:00 rrr = s/p y WW = 2 w1=8 w2=2 0.0 2013-03-22 11:57:00
1 2013-03-22 18:00:00 rrr = trazas y WW = 2 w1=2 w2=2 0.0 2013-03-22 17:59:00
1 2013-03-26 18:00:00 rrr = trazas y WW = 2 w1=2 w2=2 0.0 2013-03-26 17:52:00
1 2013-04-02 18:00:00 rrr = trazas y WW = 0 w1=0 w2=0 0.0 2013-04-02 17:56:00
1 2013-04-04 12:00:00 rrr = 4.8 y WW = 2 w1=2 w2=1 4.8 2013-04-04 12:00:00
1 2013-04-16 18:00:00 rrr = s/p y WW = 2 w1=8 w2=2 0.0 2013-04-16 17:58:00
1 2013-04-25 18:00:00 rrr = trazas y WW = 2 w1=1 w2=0 0.0 2013-04-25 17:53:00
1 2013-04-26 18:00:00 rrr = trazas y WW = 2 w1=1 w2=1 0.0 2013-04-26 17:54:00
1 2013-05-03 18:00:00 rrr = trazas y WW = 2 w1=2 w2=2 0.0 2013-05-03 17:53:00
1 2013-05-17 18:00:00 rrr = trazas y WW = 2 w1=1 w2=1 0.0 2013-05-17 18:07:00
1 2013-06-14 18:00:00 rrr = s/p y WW = 2 w1=8 w2=2 0.0 2013-06-14 18:31:00
1 2013-06-20 18:00:00 rrr = trazas y WW = 2 w1=2 w2=2 0.0 2013-06-20 17:59:00
1 2013-08-07 18:00:00 rrr = s/p y WW = 2 w1=8 w2=2 0.0 2013-08-07 17:55:00
1 2013-08-12 18:00:00 rrr = trazas y WW = 2 w1=0 w2=0 0.0 2013-08-12 17:59:00
1 2013-09-11 12:00:00 rrr = 4.8 y WW = 28 w1=4 w2=2 4.8 2013-09-11 12:00:00
1 2013-09-24 18:00:00 rrr = trazas y WW = 2 w1=0 w2=0 0.0 2013-09-24 17:54:00
1 2013-10-09 12:00:00 rrr = 3.4 y WW = 2 w1=2 w2=1 3.4 2013-10-09 11:56:00
1 2013-10-11 18:00:00 rrr = trazas y WW = 0 w1=0 w2=0 0.0 2013-10-11 18:04:00
1 2013-11-25 12:00:00 rrr = 1.8 y WW = 2 w1=2 w2=2 1.8 2013-11-25 11:59:00
1 2013-11-27 18:00:00 rrr = 0.1 y WW = 2 w1=2 w2=2 0.1 2013-11-27 17:54:00
1 2013-11-28 18:00:00 rrr = trazas y WW = 2 w1=2 w2=2 0.0 2013-11-28 18:02:00
1 2013-12-04 18:00:00 rrr = trazas y WW = 2 w1=2 w2=2 0.0 2013-12-04 17:58:00
1 2013-12-19 18:00:00 rrr = trazas y WW = 2 w1=2 w2=2 0.0 2013-12-19 17:54:00
1 2013-12-20 18:00:00 rrr = trazas y WW = 2 w1=2 w2=2 0.0 2013-12-20 18:00:00
1 2013-12-23 18:00:00 rrr = trazas y WW = 2 w1=2 w2=2 0.0 2013-12-23 18:58:00
1 2014-01-10 18:00:00 rrr = trazas y WW = 2 w1=2 w2=2 0.0 2014-01-10 17:59:00
1 2014-02-11 12:00:00 rrr = trazas y WW = 2 w1=1 w2=1 0.0 2014-02-11 11:56:00
1 2014-02-14 18:00:00 rrr = trazas y WW = 0 w1=0 w2=0 0.0 2014-02-14 17:58:00
1 2014-02-27 18:00:00 rrr = trazas y WW = 2 w1=2 w2=2 0.0 2014-02-27 17:59:00
1 2014-03-03 18:00:00 rrr = trazas y WW = 2 w1=2 w2=2 0.0 2014-03-03 17:57:00
1 2014-03-04 18:00:00 rrr = trazas y WW = 2 w1=2 w2=2 0.0 2014-03-04 19:03:00
1 2014-03-19 12:00:00 rrr = trazas y WW = 2 w1=2 w2=2 0.0 2014-03-19 11:55:00
1 2014-05-22 18:00:00 rrr = trazas y WW = 2 w1=0 w2=0 0.0 2014-05-22 18:06:00
1 2014-05-26 18:00:00 rrr = s/p y WW = 2 w1=8 w2=2 0.0 2014-05-26 17:57:00
1 2014-06-06 18:00:00 rrr = 2.5 y WW = 2 w1=2 w2=2 2.5 2014-06-06 18:56:00
1 2014-06-20 18:00:00 rrr = 0.2 y WW = 2 w1=1 w2=0 0.2 2014-06-20 17:54:00
1 2014-07-03 18:00:00 rrr = 0.2 y WW = 2 w1=2 w2=2 0.2 2014-07-03 17:57:00
1 2014-08-20 18:00:00 rrr = 0.2 y WW = 2 w1=2 w2=2 0.2 2014-08-20 17:58:00
1 2014-09-01 18:00:00 rrr = trazas y WW = 2 w1=2 w2=2 0.0 2014-09-01 17:57:00
1 2014-09-03 18:00:00 rrr = 0.6 y WW = 2 w1=2 w2=2 0.6 2014-09-03 18:45:00
1 2014-09-15 12:00:00 rrr = trazas y WW = 2 w1=2 w2=2 0.0 2014-09-15 12:03:00
1 2014-09-22 18:00:00 rrr = 0.2 y WW = 2 w1=2 w2=2 0.2 2014-09-22 17:56:00
1 2014-09-24 18:00:00 rrr = s/p y WW = 2 w1=8 w2=8 0.0 2014-09-24 17:53:00
1 2014-09-25 12:00:00 rrr = 1.8 y WW = 2 w1=2 w2=2 1.8 2014-09-25 12:00:00
1 2014-11-10 12:00:00 rrr = trazas y WW = 2 w1=2 w2=2 0.0 2014-11-10 11:57:00
1 2014-11-10 18:00:00 rrr = trazas y WW = 2 w1=2 w2=2 0.0 2014-11-10 17:52:00
1 2014-11-19 18:00:00 rrr = trazas y WW = 2 w1=2 w2=2 0.0 2014-11-19 17:53:00
1 2014-11-24 12:00:00 rrr = 0.6 y WW = 2 w1=2 w2=2 0.6 2014-11-24 12:32:00
1 2014-12-29 18:00:00 rrr = 0.2 y WW = 2 w1=2 w2=2 0.2 2014-12-29 17:56:00
1 2014-12-30 18:00:00 rrr = trazas y WW = 2 w1=2 w2=2 0.0 2014-12-30 17:58:00
1 2015-01-05 12:00:00 rrr = 0.6 y WW = 2 w1=2 w2=2 0.6 2015-01-05 14:06:00
1 2015-02-06 12:00:00 rrr = 0.4 y WW = 2 w1=2 w2=2 0.4 2015-02-06 12:20:00
1 2015-03-09 12:00:00 rrr = 1.5 y WW = 0 w1=0 w2=0 1.5 2015-03-09 11:58:00
1 2015-03-13 12:00:00 rrr = 2.1 y WW = 15 w1=2 w2=2 2.1 2015-03-13 11:53:00
1 2015-03-17 12:00:00 rrr = 17.7 y WW = 2 w1=0 w2=0 17.7 2015-03-17 11:54:00
1 2015-03-20 12:00:00 rrr = 2.5 y WW = 2 w1=0 w2=0 2.5 2015-03-20 11:55:00
1 2015-03-31 18:00:00 rrr = s/p y WW = 2 w1=8 w2=2 0.0 2015-03-31 17:57:00
1 2015-04-08 12:00:00 rrr = 1.3 y WW = 2 w1=2 w2=2 1.3 2015-04-08 11:50:00
1 2015-04-09 12:00:00 rrr = 2.5 y WW = 2 w1=2 w2=2 2.5 2015-04-09 11:51:00
1 2015-04-14 12:00:00 rrr = 4.5 y WW = 11 w1=2 w2=2 4.5 2015-04-14 11:52:00
1 2015-04-27 12:00:00 rrr = 0.1 y WW = 0 w1=0 w2=0 0.1 2015-04-27 11:59:00
1 2015-05-04 12:00:00 rrr = 5.5 y WW = 15 w1=2 w2=2 5.5 2015-05-04 11:54:00
1 2015-05-05 12:00:00 rrr = 5.8 y WW = 15 w1=2 w2=2 5.8 2015-05-05 11:57:00
1 2015-05-05 18:00:00 rrr = 0.1 y WW = 2 w1=4 w2=2 0.1 2015-05-05 17:56:00
1 2015-05-11 12:00:00 rrr = 5.5 y WW = 11 w1=2 w2=2 5.5 2015-05-11 12:00:00
1 2015-05-13 12:00:00 rrr = 9.6 y WW = 15 w1=2 w2=2 9.6 2015-05-13 11:57:00
1 2015-05-14 18:00:00 rrr = s/p y WW = 80 w1=8 w2=2 0.0 2015-05-14 17:53:00
1 2015-05-15 12:00:00 rrr = 0.5 y WW = 2 w1=2 w2=2 0.5 2015-05-15 11:56:00
1 2015-05-17 12:00:00 rrr = 13.2 y WW = 11 w1=2 w2=2 13.2 2015-05-17 11:58:00
1 2015-05-18 12:00:00 rrr = 0.4 y WW = 2 w1=2 w2=2 0.4 2015-05-18 11:56:00
1 2015-05-19 12:00:00 rrr = 1.0 y WW = 11 w1=2 w2=2 1.0 2015-05-19 11:59:00
1 2015-05-25 12:00:00 rrr = 5.7 y WW = 2 w1=2 w2=2 5.7 2015-05-25 11:56:00
1 2015-06-01 18:00:00 rrr = 2.0 y WW = 3 w1=2 w2=2 2.0 2015-06-01 17:59:00
1 2015-06-08 12:00:00 rrr = 48.7 y WW = 40 w1=2 w2=2 48.7 2015-06-08 11:58:00
1 2015-06-10 12:00:00 rrr = 0.4 y WW = 40 w1=2 w2=2 0.4 2015-06-10 11:57:00
1 2015-06-11 12:00:00 rrr = 6.1 y WW = 40 w1=2 w2=2 6.1 2015-06-11 11:56:00
1 2015-06-17 12:00:00 rrr = 1.8 y WW = 3 w1=2 w2=2 1.8 2015-06-17 12:00:00
1 2015-06-19 18:00:00 rrr = 5.2 y WW = 40 w1=4 w2=4 5.2 2015-06-19 17:57:00
1 2015-06-22 12:00:00 rrr = 5.1 y WW = 0 w1=0 w2=0 5.1 2015-06-22 11:54:00
1 2015-06-30 12:00:00 rrr = 0.7 y WW = 2 w1=2 w2=2 0.7 2015-06-30 11:52:00
1 2015-07-02 18:00:00 rrr = 5.3 y WW = 10 w1=4 w2=2 5.3 2015-07-02 17:58:00
1 2015-07-03 18:00:00 rrr = 5.6 y WW = 1 w1=1 w2=1 5.6 2015-07-03 17:58:00
1 2015-07-09 12:00:00 rrr = 9.0 y WW = 2 w1=2 w2=2 9.0 2015-07-09 11:52:00
1 2015-07-10 12:00:00 rrr = 0.8 y WW = 2 w1=2 w2=2 0.8 2015-07-10 11:53:00
1 2015-07-14 12:00:00 rrr = 0.6 y WW = 2 w1=2 w2=2 0.6 2015-07-14 11:54:00
1 2015-07-20 12:00:00 rrr = 28.0 y WW = 2 w1=2 w2=2 28.0 2015-07-20 12:05:00
1 2015-07-21 18:00:00 rrr = s/p y WW = 80 w1=8 w2=2 0.0 2015-07-21 17:56:00
1 2015-07-22 12:00:00 rrr = 0.5 y WW = 2 w1=2 w2=2 0.5 2015-07-22 11:57:00
1 2015-07-24 12:00:00 rrr = 0.4 y WW = 2 w1=2 w2=2 0.4 2015-07-24 11:55:00
1 2015-07-28 18:00:00 rrr = 0.3 y WW = 2 w1=4 w2=2 0.3 2015-07-28 17:59:00
1 2015-07-29 12:00:00 rrr = 2.4 y WW = 2 w1=2 w2=2 2.4 2015-07-29 11:55:00
1 2015-08-03 12:00:00 rrr = 55.3 y WW = 2 w1=2 w2=2 55.3 2015-08-03 11:55:00
1 2015-08-10 12:00:00 rrr = 2.1 y WW = 40 w1=2 w2=2 2.1 2015-08-10 11:59:00
1 2015-08-18 12:00:00 rrr = 0.6 y WW = 0 w1=0 w2=0 0.6 2015-08-18 11:52:00
1 2015-08-26 18:00:00 rrr = 0.8 y WW = 15 w1=2 w2=2 0.8 2015-08-26 18:00:00
1 2015-08-31 12:00:00 rrr = 23.7 y WW = 2 w1=2 w2=2 23.7 2015-08-31 11:56:00
1 2015-09-07 18:00:00 rrr = s/p y WW = 2 w1=8 w2=2 0.0 2015-09-07 17:55:00
1 2015-09-15 12:00:00 rrr = 1.0 y WW = 2 w1=0 w2=0 1.0 2015-09-15 11:59:00
1 2015-09-25 12:00:00 rrr = 0.7 y WW = 11 w1=2 w2=2 0.7 2015-09-25 11:58:00
1 2015-09-28 12:00:00 rrr = 14.4 y WW = 2 w1=2 w2=2 14.4 2015-09-28 11:55:00
1 2015-09-30 18:00:00 rrr = 0.1 y WW = 2 w1=2 w2=2 0.1 2015-09-30 17:53:00
1 2015-10-05 12:00:00 rrr = 0.3 y WW = 2 w1=2 w2=2 0.3 2015-10-05 11:53:00
1 2015-10-07 18:00:00 rrr = s/p y WW = 80 w1=8 w2=2 0.0 2015-10-07 17:54:00
1 2015-10-15 12:00:00 rrr = 0.6 y WW = 3 w1=2 w2=2 0.6 2015-10-15 11:58:00
1 2015-10-21 18:00:00 rrr = 1.5 y WW = 1 w1=1 w2=1 1.5 2015-10-21 17:56:00
1 2015-10-26 12:00:00 rrr = 1.4 y WW = 2 w1=0 w2=0 1.4 2015-10-26 11:55:00
1 2015-10-29 12:00:00 rrr = 1.4 y WW = 2 w1=0 w2=0 1.4 2015-10-29 11:53:00
1 2015-10-30 18:00:00 rrr = s/p y WW = 15 w1=8 w2=2 0.0 2015-10-30 17:52:00
1 2015-11-09 12:00:00 rrr = 0.3 y WW = 2 w1=2 w2=2 0.3 2015-11-09 11:57:00
1 2015-11-13 12:00:00 rrr = 1.4 y WW = 15 w1=2 w2=2 1.4 2015-11-13 13:58:00
1 2015-11-13 18:00:00 rrr = s/p y WW = 15 w1=8 w2=2 0.0 2015-11-13 17:55:00
1 2015-11-17 12:00:00 rrr = 20.5 y WW = 15 w1=2 w2=2 20.5 2015-11-17 11:57:00
1 2015-11-17 18:00:00 rrr = s/p y WW = 80 w1=8 w2=2 0.0 2015-11-17 17:57:00
1 2015-11-18 12:00:00 rrr = 20.7 y WW = 2 w1=2 w2=2 20.7 2015-11-18 11:56:00
1 2015-11-20 18:00:00 rrr = 0.2 y WW = 2 w1=2 w2=2 0.2 2015-11-20 17:57:00
1 2015-11-23 18:00:00 rrr = trazas y WW = 2 w1=2 w2=2 0.0 2015-11-23 17:58:00
1 2015-11-25 12:00:00 rrr = 1.9 y WW = 2 w1=2 w2=2 1.9 2015-11-25 11:56:00
1 2015-11-26 12:00:00 rrr = 0.3 y WW = 2 w1=2 w2=2 0.3 2015-11-26 11:57:00
1 2015-11-27 12:00:00 rrr = 3.8 y WW = 2 w1=2 w2=2 3.8 2015-11-27 11:58:00
1 2015-12-11 12:00:00 rrr = 0.3 y WW = 15 w1=2 w2=2 0.3 2015-12-11 11:57:00
1 2015-12-14 12:00:00 rrr = 9.4 y WW = 2 w1=2 w2=2 9.4 2015-12-14 11:59:00
1 2015-12-21 12:00:00 rrr = s/p y WW = 80 w1=8 w2=2 0.0 2015-12-21 11:59:00
1 2015-12-28 12:00:00 rrr = 3.4 y WW = 15 w1=2 w2=2 3.4 2015-12-28 11:56:00
1 2016-01-04 12:00:00 rrr = 0.3 y WW = 2 w1=2 w2=2 0.3 2016-01-04 11:55:00
1 2016-01-15 12:00:00 rrr = 0.2 y WW = 3 w1=2 w2=2 0.2 2016-01-15 11:55:00
1 2016-01-15 18:00:00 rrr = s/p y WW = 80 w1=8 w2=2 0.0 2016-01-15 17:52:00
1 2016-01-28 12:00:00 rrr = 2.1 y WW = 2 w1=2 w2=2 2.1 2016-01-28 11:54:00
1 2016-02-04 12:00:00 rrr = 1.5 y WW = 3 w1=2 w2=2 1.5 2016-02-04 11:59:00
1 2016-02-08 12:00:00 rrr = 22.4 y WW = 2 w1=2 w2=2 22.4 2016-02-08 13:25:00
1 2016-02-15 12:00:00 rrr = 7.2 y WW = 2 w1=2 w2=2 7.2 2016-02-15 11:56:00
1 2016-02-16 18:00:00 rrr = s/p y WW = 15 w1=8 w2=2 0.0 2016-02-16 17:52:00
1 2016-02-17 12:00:00 rrr = 4.5 y WW = 2 w1=2 w2=2 4.5 2016-02-17 11:56:00
1 2016-02-18 18:00:00 rrr = s/p y WW = 80 w1=8 w2=2 0.0 2016-02-18 17:56:00
1 2016-02-22 12:00:00 rrr = 0.8 y WW = 2 w1=2 w2=2 0.8 2016-02-22 11:52:00
1 2016-02-26 12:00:00 rrr = 2.4 y WW = 2 w1=2 w2=2 2.4 2016-03-01 15:23:00
1 2016-02-26 18:00:00 rrr = s/p y WW = 15 w1=8 w2=2 0.0 2016-03-01 13:50:00
1 2016-03-17 18:00:00 rrr = 3.9 y WW = 15 w1=2 w2=2 3.9 2016-03-17 17:55:00
1 2016-03-23 18:00:00 rrr = 1.6 y WW = 1 w1=1 w2=1 1.6 2016-03-23 18:51:00
1 2016-03-31 12:00:00 rrr = 1.3 y WW = 2 w1=2 w2=2 1.3 2016-03-31 12:00:00
1 2016-04-07 18:00:00 rrr = 0.3 y WW = 1 w1=1 w2=1 0.3 2016-04-07 17:58:00
1 2016-04-13 18:00:00 rrr = s/p y WW = 60 w1=8 w2=2 0.0 2016-04-13 17:55:00
1 2016-04-18 12:00:00 rrr = 5.6 y WW = 3 w1=2 w2=2 5.6 2016-04-18 11:58:00
1 2016-04-21 12:00:00 rrr = 5.2 y WW = 3 w1=2 w2=2 5.2 2016-04-21 11:59:00
1 2016-05-05 12:00:00 rrr = 0.4 y WW = 2 w1=2 w2=2 0.4 2016-05-05 11:55:00
1 2016-05-12 12:00:00 rrr = 1.9 y WW = 2 w1=2 w2=2 1.9 2016-05-12 12:00:00
1 2016-06-08 18:00:00 rrr = 11.4 y WW = 2 w1=2 w2=2 11.4 2016-06-08 17:55:00
1 2016-07-18 18:00:00 rrr = 0.6 y WW = 2 w1=2 w2=2 0.6 2016-07-18 17:53:00
1 2016-07-21 18:00:00 rrr = 3.0 y WW = 2 w1=2 w2=2 3.0 2016-07-21 17:55:00
1 2016-08-05 18:00:00 rrr = s/p y WW = 80 w1=8 w2=8 0.0 2016-08-05 17:59:00
1 2016-08-18 18:00:00 rrr = 5.6 y WW = 2 w1=2 w2=2 5.6 2016-08-18 17:57:00
1 2016-08-23 18:00:00 rrr = trazas y WW = 2 w1=2 w2=2 0.0 2016-08-23 17:57:00
1 2016-08-24 18:00:00 rrr = trazas y WW = 2 w1=2 w2=2 0.0 2016-08-24 17:52:00
1 2016-08-25 12:00:00 rrr = 0.9 y WW = 2 w1=2 w2=2 0.9 2016-08-25 11:52:00
1 2016-08-26 12:00:00 rrr = 2.5 y WW = 15 w1=2 w2=2 2.5 2016-08-26 11:57:00
1 2016-08-31 12:00:00 rrr = 13.9 y WW = 2 w1=1 w2=1 13.9 2016-08-31 11:57:00
1 2016-09-01 12:00:00 rrr = 0.2 y WW = 2 w1=2 w2=2 0.2 2016-09-01 11:52:00
1 2016-09-08 12:00:00 rrr = 28.4 y WW = 3 w1=2 w2=2 28.4 2016-09-08 12:04:00
1 2016-09-12 12:00:00 rrr = 4.9 y WW = 11 w1=2 w2=2 4.9 2016-09-12 12:00:00
1 2016-09-16 18:00:00 rrr = 0.4 y WW = 2 w1=2 w2=2 0.4 2016-09-16 17:57:00
1 2016-09-20 12:00:00 rrr = 2.2 y WW = 2 w1=0 w2=0 2.2 2016-09-20 11:57:00
1 2016-09-21 12:00:00 rrr = 0.4 y WW = 2 w1=2 w2=2 0.4 2016-09-21 11:56:00
1 2016-09-22 12:00:00 rrr = 5.0 y WW = 0 w1=0 w2=0 5.0 2016-09-22 11:53:00
1 2016-09-27 12:00:00 rrr = trazas y WW = 2 w1=2 w2=2 0.0 2016-09-27 11:52:00
1 2016-10-05 12:00:00 rrr = 0.2 y WW = 2 w1=2 w2=2 0.2 2016-10-05 11:53:00
1 2016-10-06 12:00:00 rrr = 0.6 y WW = 2 w1=2 w2=2 0.6 2016-10-06 11:55:00
1 2016-10-18 12:00:00 rrr = 1.6 y WW = 2 w1=2 w2=2 1.6 2016-10-18 11:56:00
1 2016-11-02 12:00:00 rrr = 16.3 y WW = 3 w1=1 w2=1 16.3 2016-11-02 11:56:00
1 2016-11-04 12:00:00 rrr = 0.8 y WW = 3 w1=2 w2=2 0.8 2016-11-04 11:56:00
1 2016-11-07 12:00:00 rrr = 37.7 y WW = 1 w1=0 w2=0 37.7 2016-11-07 11:57:00
1 2016-11-15 18:00:00 rrr = s/p y WW = 15 w1=8 w2=8 0.0 2016-11-15 17:56:00
1 2016-11-16 12:00:00 rrr = 1.3 y WW = 3 w1=0 w2=0 1.3 2016-11-16 11:56:00
1 2016-12-05 12:00:00 rrr = 3.4 y WW = 3 w1=2 w2=2 3.4 2016-12-05 12:31:00
1 2016-12-06 12:00:00 rrr = 0.4 y WW = 15 w1=2 w2=2 0.4 2016-12-06 11:54:00
1 2016-12-13 12:00:00 rrr = 0.1 y WW = 3 w1=2 w2=2 0.1 2016-12-13 11:54:00
1 2016-12-26 18:00:00 rrr = trazas y WW = 3 w1=2 w2=2 0.0 2016-12-26 18:03:00
1 2017-01-05 12:00:00 rrr = 2.5 y WW = 3 w1=2 w2=2 2.5 2017-01-05 11:55:00
1 2017-01-09 12:00:00 rrr = 23.7 y WW = 15 w1=2 w2=2 23.7 2017-01-09 12:17:00
1 2017-01-13 12:00:00 rrr = 2.2 y WW = 3 w1=2 w2=0 2.2 2017-01-13 11:58:00
1 2017-01-19 12:00:00 rrr = 1.2 y WW = 3 w1=2 w2=2 1.2 2017-01-19 11:57:00
1 2017-01-24 12:00:00 rrr = 4.4 y WW = 3 w1=2 w2=2 4.4 2017-01-24 11:53:00
1 2017-01-30 12:00:00 rrr = 4.1 y WW = 3 w1=2 w2=2 4.1 2017-01-30 11:57:00
1 2017-02-17 18:00:00 rrr = s/p y WW = 15 w1=8 w2=8 0.0 2017-02-17 17:57:00
1 2017-02-20 12:00:00 rrr = 71.8 y WW = 15 w1=2 w2=2 71.8 2017-02-20 11:55:00
1 2017-02-21 12:00:00 rrr = 10.2 y WW = 3 w1=2 w2=2 10.2 2017-02-21 11:57:00
1 2017-02-22 12:00:00 rrr = 0.5 y WW = 3 w1=2 w2=2 0.5 2017-02-22 12:01:00
1 2017-02-24 18:00:00 rrr = s/p y WW = 1 w1=5 w2=1 0.0 2017-02-24 17:55:00
1 2017-03-06 12:00:00 rrr = 0.1 y WW = 0 w1=0 w2=0 0.1 2017-03-06 11:56:00
1 2017-03-29 18:00:00 rrr = 4.2 y WW = 15 w1=2 w2=2 4.2 2017-03-29 17:57:00
1 2017-03-30 18:00:00 rrr = s/p y WW = 80 w1=8 w2=8 0.0 2017-03-30 17:58:00
1 2017-04-06 18:00:00 rrr = 0.8 y WW = 15 w1=2 w2=2 0.8 2017-04-06 17:58:00
1 2017-04-21 18:00:00 rrr = 0.1 y WW = 3 w1=2 w2=2 0.1 2017-04-21 17:56:00
1 2017-08-09 18:00:00 rrr = trazas y WW = 3 w1=2 w2=2 0.0 2017-08-09 18:04:00
1 2017-08-23 18:00:00 rrr = s/p y WW = 15 w1=8 w2=2 0.0 2017-08-23 17:59:00
1 2017-10-17 18:00:00 rrr = 0.4 y WW = 15 w1=2 w2=2 0.4 2017-10-17 17:57:00
1 2017-10-20 18:00:00 rrr = s/p y WW = 3 w1=8 w2=2 0.0 2017-10-20 18:05:00
1 2017-11-16 18:00:00 rrr = 0.3 y WW = 15 w1=2 w2=2 0.3 2017-11-16 17:59:00
1 2017-12-13 18:00:00 rrr = trazas y WW = 15 w1=2 w2=2 0.0 2017-12-13 18:02:00
1 2017-12-14 18:00:00 rrr = trazas y WW = 1 w1=1 w2=1 0.0 2017-12-14 18:00:00
1 2017-12-28 18:00:00 rrr = trazas y WW = 15 w1=2 w2=2 0.0 2018-01-03 18:53:00
1 2017-12-29 18:00:00 rrr = 15.1 y WW = 15 w1=2 w2=2 15.1 2017-12-29 18:05:00
1 2018-01-11 18:00:00 rrr = trazas y WW = 0 w1=0 w2=0 0.0 2018-01-11 17:55:00
1 2018-01-30 18:00:00 rrr = 1.7 y WW = 15 w1=2 w2=2 1.7 2018-01-30 18:04:00
1 2018-02-07 18:00:00 rrr = trazas y WW = 3 w1=2 w2=2 0.0 2018-02-13 15:41:00
1 2018-02-09 18:00:00 rrr = 1.8 y WW = 15 w1=2 w2=2 1.8 2018-02-09 17:55:00
1 2018-03-16 18:00:00 rrr = 0.1 y WW = 15 w1=2 w2=2 0.1 2018-03-16 17:58:00
1 2018-03-27 18:00:00 rrr = 0.6 y WW = 15 w1=2 w2=2 0.6 2018-03-27 17:56:00
1 2018-04-03 12:00:00 rrr = 0.4 y WW = 2 w1=2 w2=2 0.4 2018-04-03 12:16:00
1 2018-04-05 12:00:00 rrr = 15.4 y WW = 2 w1=2 w2=2 15.4 2018-04-05 11:59:00
1 2018-04-16 18:00:00 rrr = 9.8 y WW = 15 w1=2 w2=2 9.8 2018-04-16 18:04:00
1 2018-04-25 18:00:00 rrr = 0.8 y WW = 15 w1=2 w2=2 0.8 2018-04-25 17:56:00
1 2018-05-02 18:00:00 rrr = s/p y WW = 80 w1=8 w2=2 0.0 2018-05-02 17:58:00
1 2018-05-09 18:00:00 rrr = 1.0 y WW = 15 w1=4 w2=2 1.0 2018-05-09 17:59:00
1 2018-05-17 18:00:00 rrr = s/p y WW = 15 w1=8 w2=2 0.0 2018-05-17 18:01:00
1 2018-05-23 18:00:00 rrr = trazas y WW = 15 w1=4 w2=2 0.0 2018-05-23 18:02:00
1 2018-05-29 18:00:00 rrr = s/p y WW = 15 w1=8 w2=2 0.0 2018-05-29 17:59:00
1 2018-08-03 18:00:00 rrr = 0.6 y WW = 15 w1=2 w2=2 0.6 2018-08-03 17:57:00
1 2018-08-14 18:00:00 rrr = trazas y WW = 15 w1=2 w2=2 0.0 2018-08-14 18:01:00
1 2018-08-22 18:00:00 rrr = trazas y WW = 15 w1=2 w2=2 0.0 2018-08-23 15:44:00
1 2018-08-27 18:00:00 rrr = 1.7 y WW = 15 w1=2 w2=2 1.7 2018-08-27 18:00:00
1 2018-09-04 18:00:00 rrr = 0.2 y WW = 15 w1=2 w2=2 0.2 2018-09-04 17:59:00
1 2018-09-05 18:00:00 rrr = trazas y WW = 15 w1=2 w2=2 0.0 2018-09-07 18:43:00
1 2018-10-02 18:00:00 rrr = 0.1 y WW = 15 w1=2 w2=2 0.1 2018-10-02 17:55:00
1 2018-10-09 18:00:00 rrr = 0.2 y WW = 16 w1=1 w2=1 0.2 2018-10-09 17:56:00
1 2018-11-12 18:00:00 rrr = trazas y WW = 3 w1=0 w2=0 0.0 2018-11-12 17:53:00
1 2018-11-23 18:00:00 rrr = trazas y WW = 2 w1=2 w2=2 0.0 2018-11-23 17:53:00
1 2018-12-14 18:00:00 rrr = s/p y WW = 2 w1=6 w2=2 0.0 2018-12-14 17:56:00
1 2019-02-18 18:00:00 rrr = s/p y WW = 1 w1=8 w2=2 0.0 2019-02-18 17:54:00
1 2019-02-20 18:00:00 rrr = s/p y WW = 2 w1=8 w2=2 0.0 2019-02-20 17:54:00
1 2019-03-01 18:00:00 rrr = s/p y WW = 15 w1=8 w2=2 0.0 2019-03-01 17:55:00
1 2019-03-13 18:00:00 rrr = s/p y WW = 15 w1=8 w2=2 0.0 2019-03-13 17:56:00
1 2019-03-21 18:00:00 rrr = s/p y WW = 1 w1=8 w2=2 0.0 2019-03-21 17:55:00
1 2019-04-30 18:00:00 rrr = s/p y WW = 15 w1=8 w2=2 0.0 2019-05-02 13:40:00
1 2019-05-10 18:00:00 rrr = trazas y WW = 3 w1=2 w2=2 0.0 2019-05-16 14:46:00
1 2019-05-20 18:00:00 rrr = trazas y WW = 1 w1=2 w2=1 0.0 2019-05-20 17:53:00
1 2019-05-27 18:00:00 rrr = 0.1 y WW = 15 w1=2 w2=2 0.1 2019-05-27 17:58:00
1 2019-06-14 18:00:00 rrr = 0.2 y WW = 3 w1=2 w2=2 0.2 2019-06-14 17:59:00
1 2019-06-25 18:00:00 rrr = 0.1 y WW = 15 w1=2 w2=2 0.1 2019-06-25 17:49:00
1 2019-06-28 18:00:00 rrr = 0.1 y WW = 1 w1=2 w2=2 0.1 2019-07-02 20:17:00
1 2019-07-03 18:00:00 rrr = 0.2 y WW = 15 w1=4 w2=2 0.2 2019-07-03 18:02:00
1 2019-07-04 18:00:00 rrr = s/p y WW = 1 w1=8 w2=5 0.0 2019-07-04 17:55:00
1 2019-07-11 18:00:00 rrr = 0.1 y WW = 15 w1=2 w2=2 0.1 2019-07-11 17:57:00
1 2019-07-15 18:00:00 rrr = s/p y WW = 15 w1=8 w2=2 0.0 2019-07-15 17:55:00
1 2019-07-22 18:00:00 rrr = s/p y WW = 1 w1=8 w2=2 0.0 2019-07-22 17:55:00
1 2019-08-01 18:00:00 rrr = trazas y WW = 2 w1=2 w2=2 0.0 2019-08-01 18:02:00
1 2019-08-09 18:00:00 rrr = s/p y WW = 15 w1=8 w2=2 0.0 2019-08-09 17:54:00
1 2019-09-13 18:00:00 rrr = 0.2 y WW = 16 w1=2 w2=2 0.2 2019-09-13 17:56:00
1 2019-09-16 18:00:00 rrr = s/p y WW = 1 w1=8 w2=2 0.0 2019-09-16 17:54:00
1 2019-09-24 18:00:00 rrr = s/p y WW = 2 w1=8 w2=2 0.0 2019-09-24 17:56:00
1 2020-02-05 18:00:00 rrr = s/p y WW = 3 w1=8 w2=2 0.0 2020-02-05 17:58:00
1 2020-02-06 18:00:00 rrr = s/p y WW = 1 w1=8 w2=2 0.0 2020-02-06 17:54:00
1 2020-02-07 18:00:00 rrr = trazas y WW = 1 w1=4 w2=2 0.0 2020-02-07 17:55:00
1 2020-04-24 18:00:00 rrr = 0.3 y WW = 15 w1=2 w2=2 0.3 2020-04-24 18:02:00
1 2020-05-06 18:00:00 rrr = s/p y WW = 1 w1=8 w2=2 0.0 2020-05-06 17:55:00
1 2020-05-27 18:00:00 rrr = s/p y WW = 2 w1=8 w2=2 0.0 2020-05-27 17:56:00
1 2020-06-01 18:00:00 rrr = s/p y WW = 15 w1=8 w2=4 0.0 2020-06-01 17:56:00
1 2020-06-04 18:00:00 rrr = s/p y WW = 15 w1=8 w2=2 0.0 2020-06-04 17:53:00
1 2020-06-17 18:00:00 rrr = 0.1 y WW = 15 w1=2 w2=2 0.1 2020-06-17 17:59:00
1 2020-06-23 18:00:00 rrr = 1.3 y WW = 10 w1=4 w2=4 1.3 2020-06-23 17:57:00
1 2020-06-26 18:00:00 rrr = s/p y WW = 2 w1=8 w2=2 0.0 2020-06-26 17:54:00
1 2020-07-03 18:00:00 rrr = 0.1 y WW = 2 w1=4 w2=2 0.1 2020-07-03 17:58:00
1 2020-07-06 18:00:00 rrr = 0.1 y WW = 3 w1=2 w2=2 0.1 2020-07-06 18:00:00
1 2020-07-17 18:00:00 rrr = 0.6 y WW = 5 w1=2 w2=2 0.6 2020-07-17 18:02:00
1 2020-08-18 18:00:00 rrr = s/p y WW = 2 w1=8 w2=2 0.0 2020-08-18 17:57:00
1 2020-09-09 18:00:00 rrr = 0.1 y WW = 3 w1=2 w2=2 0.1 2020-09-09 17:57:00
1 2020-09-17 18:00:00 rrr = s/p y WW = 80 w1=8 w2=8 0.0 2020-09-17 17:56:00
1 2020-09-22 18:00:00 rrr = s/p y WW = 2 w1=8 w2=2 0.0 2020-09-22 17:54:00
1 2020-10-19 18:00:00 rrr = s/p y WW = 1 w1=8 w2=2 0.0 2020-10-19 17:57:00
1 2020-11-06 18:00:00 rrr = 0.4 y WW = 3 w1=0 w2=0 0.4 2020-11-06 17:56:00
1 2020-12-18 18:00:00 rrr = s/p y WW = 2 w1=8 w2=2 0.0 2020-12-18 17:56:00
1 2020-12-24 18:00:00 rrr = 0.6 y WW = 15 w1=2 w2=2 0.6 2020-12-24 18:03:00
1 2021-03-11 18:00:00 rrr = s/p y WW = 2 w1=8 w2=2 0.0 2021-03-11 17:55:00
1 2021-03-23 18:00:00 rrr = 0.2 y WW = 15 w1=2 w2=2 0.2 2021-03-23 17:59:00
1 2021-04-08 18:00:00 rrr = s/p y WW = 1 w1=8 w2=2 0.0 2021-04-08 17:56:00
1 2021-04-12 18:00:00 rrr = 1.1 y WW = 15 w1=1 w2=1 1.1 2021-04-12 18:02:00
1 2021-04-22 18:00:00 rrr = 0.1 y WW = 15 w1=2 w2=2 0.1 2021-04-22 17:58:00
1 2021-04-23 18:00:00 rrr = s/p y WW = 2 w1=8 w2=2 0.0 2021-04-23 17:55:00
1 2021-06-10 18:00:00 rrr = trazas y WW = 15 w1=2 w2=2 0.0 2021-06-10 18:17:00
1 2021-08-05 18:00:00 rrr = 0.2 y WW = 15 w1=2 w2=2 0.2 2021-08-05 18:00:00
1 2021-08-31 18:00:00 rrr = 0.4 y WW = 15 w1=2 w2=2 0.4 2021-08-31 18:00:00
1 2021-09-16 18:00:00 rrr = 0.1 y WW = 2 w1=4 w2=2 0.1 2021-09-16 17:57:00
1 2021-09-28 18:00:00 rrr = trazas y WW = 0 w1=0 w2=0 0.0 2021-09-28 17:58:00
1 2021-10-07 18:00:00 rrr = trazas y WW = 0 w1=0 w2=0 0.0 2021-10-07 18:04:00
1 2021-12-13 18:00:00 rrr = s/p y WW = 15 w1=8 w2=2 0.0 2021-12-13 17:59:00
1 2022-01-31 18:00:00 rrr = trazas y WW = 2 w1=0 w2=0 0.0 2022-01-31 17:56:00
1 2022-02-23 18:00:00 rrr = trazas y WW = 3 w1=0 w2=0 0.0 2022-02-23 17:59:00
1 2022-02-28 18:00:00 rrr = s/p y WW = 2 w1=8 w2=2 0.0 2022-02-28 17:53:00
1 2022-03-01 18:00:00 rrr = trazas y WW = 2 w1=2 w2=2 0.0 2022-03-01 17:53:00
1 2022-03-04 18:00:00 rrr = s/p y WW = 2 w1=8 w2=2 0.0 2022-03-04 17:53:00
1 2023-07-12 18:00:00 rrr = 8.3 y WW = 1 w1=1 w2=0 8.3 2023-07-12 17:56:00
Errores del Nivel 458
Nivel Fecha del Dato Descripción Información Error Fecha Ingreso
2 1962-01-17 00:00:00 Temperatura 20.8 del 16-01-1962 18:00, Mayor que la Máxima 20.6 17-01-1962 00:00 20.8 -- 20.6 2011-09-01 15:43:00
2 1962-06-19 00:00:00 Temperatura 6.0 del 18-06-1962 18:00, Mayor que la Máxima 5.5 19-06-1962 00:00 6.0 -- 5.5 2011-09-01 15:43:00
2 1963-09-27 00:00:00 Temperatura 16.4 del 26-09-1963 21:00, Mayor que la Máxima 14.8 27-09-1963 00:00 16.4 -- 14.8 2011-09-01 16:05:00
2 1965-03-25 00:00:00 Temperatura 19.0 del 24-03-1965 18:00, Mayor que la Máxima 18.8 25-03-1965 00:00 19.0 -- 18.8 2011-09-01 16:07:00
2 1965-04-08 00:00:00 Temperatura 23.3 del 07-04-1965 21:00, Mayor que la Máxima 12.6 08-04-1965 00:00 23.3 -- 12.6 2011-09-01 16:07:00
2 1965-04-23 00:00:00 Temperatura 14.4 del 22-04-1965 21:00, Mayor que la Máxima 12.6 23-04-1965 00:00 14.4 -- 12.6 2011-09-01 16:07:00
2 1970-01-06 00:00:00 Temperatura 20.4 del 05-01-1970 17:00, Mayor que la Máxima 20.0 06-01-1970 00:00 20.4 -- 20.0 2011-09-23 19:20:00
2 1970-01-13 00:00:00 Temperatura 14.0 del 12-01-1970 19:00, Mayor que la Máxima 13.8 13-01-1970 00:00 14.0 -- 13.8 2011-09-23 19:20:00
2 1970-01-18 00:00:00 Temperatura 17.5 del 17-01-1970 20:00, Mayor que la Máxima 17.4 18-01-1970 00:00 17.5 -- 17.4 2011-09-23 19:20:00
2 1970-02-01 00:00:00 Temperatura 20.2 del 31-01-1970 19:00, Mayor que la Máxima 1.9 01-02-1970 00:00 20.2 -- 1.9 2011-09-23 19:20:00
2 1970-02-16 00:00:00 Temperatura 27.4 del 15-02-1970 20:00, Mayor que la Máxima 27.0 16-02-1970 00:00 27.4 -- 27.0 2011-09-23 19:20:00
2 1970-03-03 00:00:00 Temperatura 16.0 del 02-03-1970 16:00, Mayor que la Máxima 15.9 03-03-1970 00:00 16.0 -- 15.9 2011-09-23 19:20:00
2 1970-03-06 00:00:00 Temperatura 26.1 del 05-03-1970 21:00, Mayor que la Máxima 26.0 06-03-1970 00:00 26.1 -- 26.0 2011-09-23 19:20:00
2 1970-03-09 00:00:00 Temperatura 14.9 del 08-03-1970 17:00, Mayor que la Máxima 14.8 09-03-1970 00:00 14.9 -- 14.8 2011-09-23 19:20:00
2 1970-03-17 00:00:00 Temperatura 24.5 del 16-03-1970 19:00, Mayor que la Máxima 24.2 17-03-1970 00:00 24.5 -- 24.2 2011-09-23 19:20:00
2 1970-03-30 00:00:00 Temperatura 15.8 del 29-03-1970 19:00, Mayor que la Máxima 15.7 30-03-1970 00:00 15.8 -- 15.7 2011-09-23 19:20:00
2 1970-04-04 00:00:00 Temperatura 19.2 del 03-04-1970 16:00, Mayor que la Máxima 14.5 04-04-1970 00:00 19.2 -- 14.5 2011-09-23 19:20:00
2 1970-04-05 00:00:00 Temperatura 16.1 del 04-04-1970 20:00, Mayor que la Máxima 15.9 05-04-1970 00:00 16.1 -- 15.9 2011-09-23 19:20:00
2 1970-04-30 00:00:00 Temperatura 17.8 del 29-04-1970 17:00, Mayor que la Máxima 17.5 30-04-1970 00:00 17.8 -- 17.5 2011-09-23 19:20:00
2 1970-05-12 00:00:00 Temperatura 12.5 del 11-05-1970 20:00, Mayor que la Máxima 10.2 12-05-1970 00:00 12.5 -- 10.2 2011-09-23 19:20:00
2 1970-05-15 00:00:00 Temperatura 13.5 del 14-05-1970 20:00, Mayor que la Máxima 12.4 15-05-1970 00:00 13.5 -- 12.4 2011-09-23 19:20:00
2 1970-05-18 00:00:00 Temperatura 13.0 del 17-05-1970 19:00, Mayor que la Máxima 11.8 18-05-1970 00:00 13.0 -- 11.8 2011-09-23 19:20:00
2 1970-05-21 00:00:00 Temperatura 12.0 del 20-05-1970 16:00, Mayor que la Máxima 11.8 21-05-1970 00:00 12.0 -- 11.8 2011-09-23 19:20:00
2 1970-05-27 00:00:00 Temperatura 7.4 del 26-05-1970 16:00, Mayor que la Máxima 7.2 27-05-1970 00:00 7.4 -- 7.2 2011-09-23 19:20:00
2 1970-05-28 00:00:00 Temperatura 7.0 del 27-05-1970 14:00, Mayor que la Máxima 6.4 28-05-1970 00:00 7.0 -- 6.4 2011-09-23 19:20:00
2 1970-05-30 00:00:00 Temperatura 9.0 del 29-05-1970 19:00, Mayor que la Máxima 8.3 30-05-1970 00:00 9.0 -- 8.3 2011-09-23 19:20:00
2 1970-06-05 00:00:00 Temperatura 7.0 del 04-06-1970 19:00, Mayor que la Máxima 6.7 05-06-1970 00:00 7.0 -- 6.7 2011-09-23 19:20:00
2 1970-06-11 00:00:00 Temperatura 4.0 del 10-06-1970 13:00, Mayor que la Máxima 3.9 11-06-1970 00:00 4.0 -- 3.9 2011-09-23 19:20:00
2 1970-06-22 00:00:00 Temperatura 9.0 del 21-06-1970 20:00, Mayor que la Máxima 6.2 22-06-1970 00:00 9.0 -- 6.2 2011-09-23 19:20:00
2 1970-06-28 00:00:00 Temperatura 3.0 del 27-06-1970 20:00, Mayor que la Máxima 2.8 28-06-1970 00:00 3.0 -- 2.8 2011-09-23 19:20:00
2 1970-06-30 00:00:00 Temperatura 4.0 del 29-06-1970 19:00, Mayor que la Máxima 3.4 30-06-1970 00:00 4.0 -- 3.4 2011-09-23 19:20:00
2 1970-07-02 00:00:00 Temperatura 2.5 del 01-07-1970 18:00, Mayor que la Máxima 0.0 02-07-1970 00:00 2.5 -- 0.0 2011-09-23 19:20:00
2 1970-07-04 00:00:00 Temperatura 1.3 del 03-07-1970 16:00, Mayor que la Máxima 0.6 04-07-1970 00:00 1.3 -- 0.6 2011-09-23 19:20:00
2 1970-07-14 00:00:00 Temperatura 6.5 del 13-07-1970 20:00, Mayor que la Máxima 6.3 14-07-1970 00:00 6.5 -- 6.3 2011-09-23 19:20:00
2 1970-07-21 00:00:00 Temperatura 6.5 del 20-07-1970 19:00, Mayor que la Máxima 6.2 21-07-1970 00:00 6.5 -- 6.2 2011-09-23 19:20:00
2 1970-08-11 00:00:00 Temperatura 9.0 del 10-08-1970 20:00, Mayor que la Máxima 1.0 11-08-1970 00:00 9.0 -- 1.0 2011-09-23 19:20:00
2 1970-09-04 00:00:00 Temperatura 11.0 del 03-09-1970 18:00, Mayor que la Máxima 10.8 04-09-1970 00:00 11.0 -- 10.8 2011-09-23 19:20:00
2 1970-09-08 00:00:00 Temperatura 14.3 del 07-09-1970 21:00, Mayor que la Máxima 13.7 08-09-1970 00:00 14.3 -- 13.7 2011-09-23 19:20:00
2 1970-09-25 00:00:00 Temperatura 13.0 del 24-09-1970 20:00, Mayor que la Máxima 12.4 25-09-1970 00:00 13.0 -- 12.4 2011-09-23 19:20:00
2 1970-10-15 00:00:00 Temperatura 17.0 del 14-10-1970 20:00, Mayor que la Máxima 12.2 15-10-1970 00:00 17.0 -- 12.2 2011-09-23 19:20:00
2 1970-11-17 00:00:00 Temperatura 14.0 del 16-11-1970 18:00, Mayor que la Máxima 13.4 17-11-1970 00:00 14.0 -- 13.4 2011-09-23 19:20:00
2 1970-11-27 00:00:00 Temperatura 18.0 del 26-11-1970 23:00, Mayor que la Máxima 14.2 27-11-1970 00:00 18.0 -- 14.2 2011-09-23 19:20:00
2 1970-12-05 00:00:00 Temperatura 16.0 del 04-12-1970 20:00, Mayor que la Máxima 15.9 05-12-1970 00:00 16.0 -- 15.9 2011-09-23 19:20:00
2 1970-12-08 00:00:00 Temperatura 18.4 del 08-12-1970 00:00, Mayor que la Máxima 16.5 08-12-1970 00:00 18.4 -- 16.5 2011-09-23 19:20:00
2 1970-12-14 00:00:00 Temperatura 15.0 del 13-12-1970 20:00, Mayor que la Máxima 14.2 14-12-1970 00:00 15.0 -- 14.2 2011-09-23 19:20:00
2 1971-01-04 00:00:00 Temperatura 12.2 del 03-01-1971 17:00, Mayor que la Máxima 3.8 04-01-1971 00:00 12.2 -- 3.8 2011-09-23 19:20:00
2 1971-03-04 00:00:00 Temperatura 23.0 del 03-03-1971 19:00, Mayor que la Máxima 22.4 04-03-1971 00:00 23.0 -- 22.4 2011-09-23 19:20:00
2 1971-03-16 00:00:00 Temperatura 21.0 del 15-03-1971 19:00, Mayor que la Máxima 20.6 16-03-1971 00:00 21.0 -- 20.6 2011-09-23 19:20:00
2 1971-03-18 00:00:00 Temperatura 12.0 del 17-03-1971 21:00, Mayor que la Máxima 11.3 18-03-1971 00:00 12.0 -- 11.3 2011-09-23 19:20:00
2 1971-04-12 00:00:00 Temperatura 11.0 del 11-04-1971 17:00, Mayor que la Máxima 10.6 12-04-1971 00:00 11.0 -- 10.6 2011-09-23 19:20:00
2 1971-05-04 00:00:00 Temperatura 10.5 del 03-05-1971 20:00, Mayor que la Máxima 10.4 04-05-1971 00:00 10.5 -- 10.4 2011-09-23 19:20:00
2 1971-05-11 00:00:00 Temperatura 14.5 del 10-05-1971 19:00, Mayor que la Máxima 13.5 11-05-1971 00:00 14.5 -- 13.5 2011-09-23 19:20:00
2 1971-06-21 00:00:00 Temperatura 2.1 del 21-06-1971 00:00, Mayor que la Máxima 0.6 21-06-1971 00:00 2.1 -- 0.6 2011-09-23 19:20:00
2 1971-09-19 00:00:00 Temperatura 10.0 del 18-09-1971 16:00, Mayor que la Máxima 8.7 19-09-1971 00:00 10.0 -- 8.7 2011-09-23 19:20:00
2 1971-09-22 00:00:00 Temperatura 15.0 del 21-09-1971 19:00, Mayor que la Máxima 8.1 22-09-1971 00:00 15.0 -- 8.1 2011-09-23 19:20:00
2 1971-09-27 00:00:00 Temperatura 13.5 del 26-09-1971 19:00, Mayor que la Máxima 13.2 27-09-1971 00:00 13.5 -- 13.2 2011-09-23 19:20:00
2 1971-10-03 00:00:00 Temperatura 9.0 del 02-10-1971 19:00, Mayor que la Máxima 8.9 03-10-1971 00:00 9.0 -- 8.9 2011-09-23 19:20:00
2 1971-11-14 00:00:00 Temperatura 18.5 del 13-11-1971 19:00, Mayor que la Máxima 18.2 14-11-1971 00:00 18.5 -- 18.2 2011-09-23 19:20:00
2 1971-11-26 00:00:00 Temperatura 14.0 del 25-11-1971 17:00, Mayor que la Máxima 13.0 26-11-1971 00:00 14.0 -- 13.0 2011-09-23 19:21:00
2 1971-12-15 00:00:00 Temperatura 15.5 del 14-12-1971 20:00, Mayor que la Máxima 15.0 15-12-1971 00:00 15.5 -- 15.0 2011-09-23 19:21:00
2 1971-12-16 00:00:00 Temperatura 8.0 del 15-12-1971 13:00, Mayor que la Máxima 0.8 16-12-1971 00:00 8.0 -- 0.8 2011-09-23 19:21:00
2 1971-12-22 00:00:00 Temperatura 12.0 del 21-12-1971 16:00, Mayor que la Máxima 11.8 22-12-1971 00:00 12.0 -- 11.8 2011-09-23 19:21:00
2 1972-01-09 00:00:00 Temperatura 28.0 del 08-01-1972 17:00, Mayor que la Máxima 24.2 09-01-1972 00:00 28.0 -- 24.2 2011-09-23 19:21:00
2 1972-03-09 00:00:00 Temperatura 16.8 del 08-03-1972 20:00, Mayor que la Máxima 0.2 09-03-1972 00:00 16.8 -- 0.2 2011-09-23 19:21:00
2 1972-03-25 00:00:00 Temperatura 12.0 del 24-03-1972 18:00, Mayor que la Máxima 4.0 25-03-1972 00:00 12.0 -- 4.0 2011-09-23 19:21:00
2 1972-03-31 00:00:00 Temperatura 17.5 del 30-03-1972 20:00, Mayor que la Máxima 16.8 31-03-1972 00:00 17.5 -- 16.8 2011-09-23 19:21:00
2 1972-04-11 00:00:00 Temperatura 17.6 del 10-04-1972 17:00, Mayor que la Máxima 17.5 11-04-1972 00:00 17.6 -- 17.5 2011-09-23 19:21:00
2 1972-04-13 00:00:00 Temperatura 10.5 del 12-04-1972 20:00, Mayor que la Máxima 10.2 13-04-1972 00:00 10.5 -- 10.2 2011-09-23 19:21:00
2 1972-04-15 00:00:00 Temperatura 10.8 del 14-04-1972 17:00, Mayor que la Máxima 10.6 15-04-1972 00:00 10.8 -- 10.6 2011-09-23 19:21:00
2 1972-04-23 00:00:00 Temperatura 12.1 del 22-04-1972 16:00, Mayor que la Máxima 12.0 23-04-1972 00:00 12.1 -- 12.0 2011-09-23 19:21:00
2 1972-04-29 00:00:00 Temperatura 15.5 del 28-04-1972 19:00, Mayor que la Máxima 14.6 29-04-1972 00:00 15.5 -- 14.6 2011-09-23 19:21:00
2 1972-05-02 00:00:00 Temperatura 12.0 del 01-05-1972 17:00, Mayor que la Máxima 11.4 02-05-1972 00:00 12.0 -- 11.4 2011-09-23 19:21:00
2 1972-05-15 00:00:00 Temperatura 15.8 del 14-05-1972 17:00, Mayor que la Máxima 15.0 15-05-1972 00:00 15.8 -- 15.0 2011-09-23 19:21:00
2 1972-06-06 00:00:00 Temperatura 3.0 del 05-06-1972 15:00, Mayor que la Máxima 2.5 06-06-1972 00:00 3.0 -- 2.5 2011-09-23 19:21:00
2 1972-06-10 00:00:00 Temperatura 2.7 del 09-06-1972 20:00, Mayor que la Máxima 0.3 10-06-1972 00:00 2.7 -- 0.3 2011-09-23 19:21:00
2 1972-06-16 00:00:00 Temperatura 10.6 del 15-06-1972 19:00, Mayor que la Máxima 1.1 16-06-1972 00:00 10.6 -- 1.1 2011-09-23 19:21:00
2 1972-06-23 00:00:00 Temperatura 8.5 del 22-06-1972 19:00, Mayor que la Máxima 8.0 23-06-1972 00:00 8.5 -- 8.0 2011-09-23 19:21:00
2 1972-08-03 00:00:00 Temperatura 3.0 del 03-08-1972 00:00, Mayor que la Máxima 2.0 03-08-1972 00:00 3.0 -- 2.0 2011-09-23 19:21:00
2 1972-08-08 00:00:00 Temperatura 10.0 del 07-08-1972 20:00, Mayor que la Máxima 9.5 08-08-1972 00:00 10.0 -- 9.5 2011-09-23 19:21:00
2 1972-09-12 00:00:00 Temperatura 11.5 del 11-09-1972 18:00, Mayor que la Máxima 1.6 12-09-1972 00:00 11.5 -- 1.6 2011-09-23 19:21:00
2 1972-10-17 00:00:00 Temperatura 19.4 del 16-10-1972 18:00, Mayor que la Máxima 2.0 17-10-1972 00:00 19.4 -- 2.0 2011-09-23 19:21:00
2 1972-10-18 00:00:00 Temperatura 14.5 del 17-10-1972 20:00, Mayor que la Máxima 14.0 18-10-1972 00:00 14.5 -- 14.0 2011-09-23 19:21:00
2 1972-11-04 00:00:00 Temperatura 16.4 del 03-11-1972 19:00, Mayor que la Máxima 12.6 04-11-1972 00:00 16.4 -- 12.6 2011-09-23 19:21:00
2 1972-11-27 00:00:00 Temperatura 15.4 del 26-11-1972 14:00, Mayor que la Máxima 13.5 27-11-1972 00:00 15.4 -- 13.5 2011-09-23 19:21:00
2 1972-12-21 00:00:00 Temperatura 21.0 del 20-12-1972 17:00, Mayor que la Máxima 20.0 21-12-1972 00:00 21.0 -- 20.0 2011-09-23 19:21:00
2 1972-12-23 00:00:00 Temperatura 18.0 del 22-12-1972 21:00, Mayor que la Máxima 17.0 23-12-1972 00:00 18.0 -- 17.0 2011-09-23 19:21:00
2 1973-01-02 00:00:00 Temperatura 17.0 del 01-01-1973 17:00, Mayor que la Máxima 16.5 02-01-1973 00:00 17.0 -- 16.5 2011-09-23 19:21:00
2 1973-01-02 00:00:00 Temperatura 17.0 del 01-01-1973 17:00, Mayor que la Máxima 16.5 02-01-1973 00:00 17.0 -- 16.5 2011-09-23 19:21:00
2 1973-01-04 00:00:00 Temperatura 13.1 del 03-01-1973 14:00, Mayor que la Máxima 12.7 04-01-1973 00:00 13.1 -- 12.7 2011-09-23 19:21:00
2 1973-01-10 00:00:00 Temperatura 17.9 del 09-01-1973 16:00, Mayor que la Máxima 17.5 10-01-1973 00:00 17.9 -- 17.5 2011-09-23 19:21:00
2 1973-01-22 00:00:00 Temperatura 18.4 del 21-01-1973 16:00, Mayor que la Máxima 18.0 22-01-1973 00:00 18.4 -- 18.0 2011-09-23 19:21:00
2 1973-02-09 00:00:00 Temperatura 18.8 del 08-02-1973 13:00, Mayor que la Máxima 16.4 09-02-1973 00:00 18.8 -- 16.4 2011-09-23 19:21:00
2 1973-04-03 00:00:00 Temperatura 16.5 del 02-04-1973 19:00, Mayor que la Máxima 16.0 03-04-1973 00:00 16.5 -- 16.0 2011-09-23 19:21:00
2 1973-05-07 00:00:00 Temperatura 11.0 del 06-05-1973 19:00, Mayor que la Máxima 10.0 07-05-1973 00:00 11.0 -- 10.0 2011-09-23 19:21:00
2 1973-05-13 00:00:00 Temperatura 15.0 del 12-05-1973 21:00, Mayor que la Máxima 10.0 13-05-1973 00:00 15.0 -- 10.0 2011-09-23 19:21:00
2 1973-05-15 00:00:00 Temperatura 14.0 del 14-05-1973 19:00, Mayor que la Máxima 13.0 15-05-1973 00:00 14.0 -- 13.0 2011-09-23 19:21:00
2 1973-05-21 00:00:00 Temperatura 14.0 del 20-05-1973 19:00, Mayor que la Máxima 13.0 21-05-1973 00:00 14.0 -- 13.0 2011-09-23 19:21:00
2 1973-06-11 00:00:00 Temperatura 7.4 del 10-06-1973 16:00, Mayor que la Máxima 7.1 11-06-1973 00:00 7.4 -- 7.1 2011-09-23 19:21:00
2 1973-06-24 00:00:00 Temperatura 3.4 del 23-06-1973 20:00, Mayor que la Máxima 3.2 24-06-1973 00:00 3.4 -- 3.2 2011-09-23 19:21:00
2 1973-07-04 00:00:00 Temperatura 4.6 del 03-07-1973 13:00, Mayor que la Máxima 4.3 04-07-1973 00:00 4.6 -- 4.3 2011-09-23 19:21:00
2 1973-07-06 00:00:00 Temperatura 11.0 del 05-07-1973 16:00, Mayor que la Máxima 4.5 06-07-1973 00:00 11.0 -- 4.5 2011-09-23 19:21:00
2 1973-07-11 00:00:00 Temperatura 10.9 del 10-07-1973 14:00, Mayor que la Máxima 6.0 11-07-1973 00:00 10.9 -- 6.0 2011-09-23 19:21:00
2 1973-07-13 00:00:00 Temperatura 32.8 del 12-07-1973 14:00, Mayor que la Máxima 7.3 13-07-1973 00:00 32.8 -- 7.3 2011-09-23 19:21:00
2 1973-07-21 00:00:00 Temperatura 2.4 del 20-07-1973 19:00, Mayor que la Máxima 0.2 21-07-1973 00:00 2.4 -- 0.2 2011-09-23 19:21:00
2 1973-07-24 00:00:00 Temperatura 13.0 del 23-07-1973 14:00, Mayor que la Máxima 6.5 24-07-1973 00:00 13.0 -- 6.5 2011-09-23 19:21:00
2 1973-08-01 00:00:00 Temperatura 9.9 del 31-07-1973 19:00, Mayor que la Máxima 9.7 01-08-1973 00:00 9.9 -- 9.7 2011-09-23 19:21:00
2 1973-08-04 00:00:00 Temperatura 7.2 del 03-08-1973 13:00, Mayor que la Máxima 6.9 04-08-1973 00:00 7.2 -- 6.9 2011-09-23 19:21:00
2 1973-08-08 00:00:00 Temperatura 3.6 del 07-08-1973 19:00, Mayor que la Máxima 3.0 08-08-1973 00:00 3.6 -- 3.0 2011-09-23 19:21:00
2 1973-09-10 00:00:00 Temperatura 10.6 del 09-09-1973 16:00, Mayor que la Máxima 10.0 10-09-1973 00:00 10.6 -- 10.0 2011-09-23 19:21:00
2 1973-09-29 00:00:00 Temperatura 17.0 del 28-09-1973 17:00, Mayor que la Máxima 7.8 29-09-1973 00:00 17.0 -- 7.8 2011-09-23 19:21:00
2 1973-10-24 00:00:00 Temperatura 15.5 del 23-10-1973 20:00, Mayor que la Máxima 15.0 24-10-1973 00:00 15.5 -- 15.0 2011-09-23 19:21:00
2 1973-12-29 00:00:00 Temperatura 22.0 del 28-12-1973 20:00, Mayor que la Máxima 21.7 29-12-1973 00:00 22.0 -- 21.7 2011-09-23 19:22:00
2 1974-01-04 00:00:00 Temperatura 16.5 del 03-01-1974 19:00, Mayor que la Máxima 16.4 04-01-1974 00:00 16.5 -- 16.4 2011-09-23 19:22:00
2 1974-01-08 00:00:00 Temperatura 14.0 del 07-01-1974 20:00, Mayor que la Máxima 13.6 08-01-1974 00:00 14.0 -- 13.6 2011-09-23 19:22:00
2 1974-01-19 00:00:00 Temperatura 14.0 del 18-01-1974 15:00, Mayor que la Máxima 13.1 19-01-1974 00:00 14.0 -- 13.1 2011-09-23 19:22:00
2 1974-03-06 00:00:00 Temperatura 15.3 del 05-03-1974 19:00, Mayor que la Máxima 15.2 06-03-1974 00:00 15.3 -- 15.2 2011-09-23 19:22:00
2 1974-04-07 00:00:00 Temperatura 15.4 del 06-04-1974 19:00, Mayor que la Máxima 15.0 07-04-1974 00:00 15.4 -- 15.0 2011-09-23 19:22:00
2 1974-04-19 00:00:00 Temperatura 11.7 del 18-04-1974 20:00, Mayor que la Máxima 11.6 19-04-1974 00:00 11.7 -- 11.6 2011-09-23 19:22:00
2 1974-06-23 00:00:00 Temperatura 10.5 del 22-06-1974 20:00, Mayor que la Máxima 10.4 23-06-1974 00:00 10.5 -- 10.4 2011-09-23 19:22:00
2 1974-07-15 00:00:00 Temperatura 5.3 del 14-07-1974 13:00, Mayor que la Máxima 5.2 15-07-1974 00:00 5.3 -- 5.2 2011-09-23 19:22:00
2 1974-11-19 00:00:00 Temperatura 12.6 del 18-11-1974 18:00, Mayor que la Máxima 12.0 19-11-1974 00:00 12.6 -- 12.0 2011-09-23 19:22:00
2 1974-12-30 00:00:00 Temperatura 14.7 del 29-12-1974 17:00, Mayor que la Máxima 14.4 30-12-1974 00:00 14.7 -- 14.4 2011-09-23 19:22:00
2 1975-01-18 00:00:00 Temperatura 18.5 del 17-01-1975 20:00, Mayor que la Máxima 17.8 18-01-1975 00:00 18.5 -- 17.8 2011-09-23 19:22:00
2 1975-02-03 00:00:00 Temperatura 24.5 del 02-02-1975 20:00, Mayor que la Máxima 24.4 03-02-1975 00:00 24.5 -- 24.4 2011-09-23 19:22:00
2 1975-05-24 00:00:00 Temperatura 12.8 del 23-05-1975 20:00, Mayor que la Máxima 12.4 24-05-1975 00:00 12.8 -- 12.4 2011-09-23 19:22:00
2 1975-06-14 00:00:00 Temperatura 11.0 del 13-06-1975 20:00, Mayor que la Máxima 10.2 14-06-1975 00:00 11.0 -- 10.2 2011-09-23 19:22:00
2 1975-07-15 00:00:00 Temperatura 3.8 del 14-07-1975 13:00, Mayor que la Máxima 0.4 15-07-1975 00:00 3.8 -- 0.4 2011-09-23 19:22:00
2 1975-08-31 00:00:00 Temperatura 10.8 del 30-08-1975 19:00, Mayor que la Máxima 1.3 31-08-1975 00:00 10.8 -- 1.3 2011-09-23 19:22:00
2 1975-09-10 00:00:00 Temperatura 5.6 del 09-09-1975 20:00, Mayor que la Máxima 0.6 10-09-1975 00:00 5.6 -- 0.6 2011-09-23 19:22:00
2 1975-09-28 00:00:00 Temperatura 11.2 del 27-09-1975 20:00, Mayor que la Máxima 11.1 28-09-1975 00:00 11.2 -- 11.1 2011-09-23 19:22:00
2 1975-10-05 00:00:00 Temperatura 13.6 del 04-10-1975 20:00, Mayor que la Máxima 1.4 05-10-1975 00:00 13.6 -- 1.4 2011-09-23 19:22:00
2 1975-10-06 00:00:00 Temperatura 4.8 del 05-10-1975 13:00, Mayor que la Máxima 4.6 06-10-1975 00:00 4.8 -- 4.6 2011-09-23 19:22:00
2 1975-11-01 00:00:00 Temperatura 19.1 del 31-10-1975 18:00, Mayor que la Máxima 14.5 01-11-1975 00:00 19.1 -- 14.5 2011-09-23 19:23:00
2 1975-12-06 00:00:00 Temperatura 14.2 del 05-12-1975 19:00, Mayor que la Máxima 1.5 06-12-1975 00:00 14.2 -- 1.5 2011-09-23 19:23:00
2 1976-04-10 00:00:00 Temperatura 10.4 del 09-04-1976 18:00, Mayor que la Máxima 10.3 10-04-1976 00:00 10.4 -- 10.3 2011-09-23 19:23:00
2 1976-04-18 00:00:00 Temperatura 16.8 del 17-04-1976 20:00, Mayor que la Máxima 16.1 18-04-1976 00:00 16.8 -- 16.1 2011-09-23 19:23:00
2 1976-04-25 00:00:00 Temperatura 15.2 del 24-04-1976 18:00, Mayor que la Máxima 15.1 25-04-1976 00:00 15.2 -- 15.1 2011-09-23 19:23:00
2 1976-05-25 00:00:00 Temperatura 9.6 del 24-05-1976 19:00, Mayor que la Máxima 8.9 25-05-1976 00:00 9.6 -- 8.9 2011-09-23 19:23:00
2 1976-06-05 00:00:00 Temperatura 13.5 del 04-06-1976 15:00, Mayor que la Máxima 6.0 05-06-1976 00:00 13.5 -- 6.0 2011-09-23 19:23:00
2 1976-06-20 00:00:00 Temperatura 1.5 del 19-06-1976 17:00, Mayor que la Máxima 1.3 20-06-1976 00:00 1.5 -- 1.3 2011-09-23 19:23:00
2 1976-10-25 00:00:00 Temperatura 12.9 del 24-10-1976 18:00, Mayor que la Máxima 12.8 25-10-1976 00:00 12.9 -- 12.8 2011-09-23 19:23:00
2 1976-12-04 00:00:00 Temperatura 17.7 del 03-12-1976 16:00, Mayor que la Máxima 17.2 04-12-1976 00:00 17.7 -- 17.2 2011-09-23 19:23:00
2 1976-12-17 00:00:00 Temperatura 14.7 del 16-12-1976 18:00, Mayor que la Máxima 14.6 17-12-1976 00:00 14.7 -- 14.6 2011-09-23 19:23:00
2 1977-01-06 00:00:00 Temperatura 16.9 del 05-01-1977 21:00, Mayor que la Máxima 16.8 06-01-1977 00:00 16.9 -- 16.8 2011-09-23 19:23:00
2 1977-04-07 00:00:00 Temperatura 18.2 del 06-04-1977 17:00, Mayor que la Máxima 17.4 07-04-1977 00:00 18.2 -- 17.4 2011-09-23 19:23:00
2 1977-05-06 00:00:00 Temperatura 7.8 del 05-05-1977 20:00, Mayor que la Máxima -8.5 06-05-1977 00:00 7.8 -- -8.5 2011-09-23 19:23:00
2 1977-06-20 00:00:00 Temperatura 3.5 del 20-06-1977 00:00, Mayor que la Máxima 1.9 20-06-1977 00:00 3.5 -- 1.9 2011-09-23 19:23:00
2 1977-08-05 00:00:00 Temperatura 10.4 del 04-08-1977 17:00, Mayor que la Máxima 10.3 05-08-1977 00:00 10.4 -- 10.3 2011-09-23 19:23:00
2 1977-11-23 00:00:00 Temperatura 17.6 del 22-11-1977 21:00, Mayor que la Máxima 14.8 23-11-1977 00:00 17.6 -- 14.8 2011-09-23 19:24:00
2 1978-01-30 00:00:00 Temperatura 15.8 del 29-01-1978 16:00, Mayor que la Máxima 11.0 30-01-1978 00:00 15.8 -- 11.0 2011-09-23 19:24:00
2 1978-04-17 00:00:00 Temperatura 20.6 del 16-04-1978 20:00, Mayor que la Máxima 20.1 17-04-1978 00:00 20.6 -- 20.1 2011-09-23 19:24:00
2 1978-05-23 00:00:00 Temperatura 12.4 del 22-05-1978 19:00, Mayor que la Máxima 12.3 23-05-1978 00:00 12.4 -- 12.3 2011-09-23 19:24:00
2 1978-06-12 00:00:00 Temperatura 9.5 del 11-06-1978 17:00, Mayor que la Máxima 8.4 12-06-1978 00:00 9.5 -- 8.4 2011-09-23 19:24:00
2 1978-06-30 00:00:00 Temperatura 5.0 del 29-06-1978 19:00, Mayor que la Máxima 2.4 30-06-1978 00:00 5.0 -- 2.4 2011-09-23 19:24:00
2 1978-11-29 00:00:00 Temperatura 18.9 del 28-11-1978 20:00, Mayor que la Máxima 18.1 29-11-1978 00:00 18.9 -- 18.1 2011-09-23 19:24:00
2 1978-12-14 00:00:00 Temperatura 17.5 del 13-12-1978 15:00, Mayor que la Máxima 13.9 14-12-1978 00:00 17.5 -- 13.9 2011-09-23 19:24:00
2 1978-12-30 00:00:00 Temperatura 17.4 del 29-12-1978 16:00, Mayor que la Máxima 16.9 30-12-1978 00:00 17.4 -- 16.9 2011-09-23 19:24:00
2 1979-01-18 00:00:00 Temperatura 23.6 del 17-01-1979 15:00, Mayor que la Máxima 21.5 18-01-1979 00:00 23.6 -- 21.5 2011-09-23 19:24:00
2 1979-04-25 00:00:00 Temperatura 19.2 del 24-04-1979 20:00, Mayor que la Máxima 18.4 25-04-1979 00:00 19.2 -- 18.4 2011-09-23 19:24:00
2 1979-05-14 00:00:00 Temperatura 11.0 del 13-05-1979 17:00, Mayor que la Máxima 9.7 14-05-1979 00:00 11.0 -- 9.7 2011-09-23 19:24:00
2 1979-07-12 00:00:00 Temperatura 24.4 del 11-07-1979 17:00, Mayor que la Máxima 16.4 12-07-1979 00:00 24.4 -- 16.4 2011-09-23 19:24:00
2 1979-08-12 00:00:00 Temperatura 10.0 del 11-08-1979 20:00, Mayor que la Máxima 9.9 12-08-1979 00:00 10.0 -- 9.9 2011-09-23 19:24:00
2 1979-08-26 00:00:00 Temperatura 10.2 del 25-08-1979 18:00, Mayor que la Máxima 10.0 26-08-1979 00:00 10.2 -- 10.0 2011-09-23 19:24:00
2 1979-10-25 00:00:00 Temperatura 7.6 del 24-10-1979 21:00, Mayor que la Máxima 7.2 25-10-1979 00:00 7.6 -- 7.2 2011-09-23 19:24:00
2 1979-11-11 00:00:00 Temperatura 27.0 del 10-11-1979 19:00, Mayor que la Máxima 23.7 11-11-1979 00:00 27.0 -- 23.7 2011-09-23 19:25:00
2 2019-04-08 00:00:00 Temperatura 18.8 del 07-04-2019 18:00, Mayor que la Máxima 17.4 08-04-2019 00:00 18.8 -- 17.4 2019-04-08 15:42:00
2 2022-04-07 00:00:00 Temperatura 14.3 del 06-04-2022 19:00, Mayor que la Máxima 14.2 07-04-2022 00:00 14.3 -- 14.2 2022-04-07 13:59:00
2 2023-04-28 00:00:00 Temperatura 12.4 del 27-04-2023 20:00, Mayor que la Máxima 11.9 28-04-2023 00:00 12.4 -- 11.9 2023-04-28 15:07:00
2 1962-05-11 12:00:00 Temperatura 9.0 del 11-05-1962 06:00, Menor que la Mínima 9.2 11-05-1962 12:00 9.0 -- 9.2 2011-09-01 16:14:00
2 1970-01-05 12:00:00 Temperatura 13.0 del 05-01-1970 09:00, Menor que la Mínima 13.2 05-01-1970 12:00 13.0 -- 13.2 2011-09-01 18:05:00
2 1970-04-01 12:00:00 Temperatura 7.5 del 01-04-1970 11:00, Menor que la Mínima 8.2 01-04-1970 12:00 7.5 -- 8.2 2011-09-01 18:07:00
2 1970-04-03 12:00:00 Temperatura 8.1 del 03-04-1970 11:00, Menor que la Mínima 8.3 03-04-1970 12:00 8.1 -- 8.3 2011-09-01 18:07:00
2 1970-04-21 12:00:00 Temperatura 3.0 del 21-04-1970 11:00, Menor que la Mínima 3.4 21-04-1970 12:00 3.0 -- 3.4 2011-09-01 18:07:00
2 1970-04-26 12:00:00 Temperatura 5.0 del 26-04-1970 11:00, Menor que la Mínima 5.2 26-04-1970 12:00 5.0 -- 5.2 2011-09-01 18:07:00
2 1970-05-25 12:00:00 Temperatura 6.1 del 25-05-1970 10:00, Menor que la Mínima 6.2 25-05-1970 12:00 6.1 -- 6.2 2011-09-01 18:07:00
2 1970-07-20 12:00:00 Temperatura -0.1 del 20-07-1970 11:00, Menor que la Mínima 0.2 20-07-1970 12:00 -0.1 -- 0.2 2011-09-01 18:08:00
2 1970-07-22 12:00:00 Temperatura 0.5 del 22-07-1970 09:00, Menor que la Mínima 5.3 22-07-1970 12:00 0.5 -- 5.3 2011-09-01 18:08:00
2 1970-07-29 12:00:00 Temperatura -1.0 del 29-07-1970 10:00, Menor que la Mínima -0.8 29-07-1970 12:00 -1.0 -- -0.8 2011-09-01 18:09:00
2 1970-10-05 12:00:00 Temperatura -3.0 del 05-10-1970 11:00, Menor que la Mínima 3.1 05-10-1970 12:00 -3.0 -- 3.1 2011-09-01 18:10:00
2 1970-10-06 12:00:00 Temperatura -2.2 del 06-10-1970 09:00, Menor que la Mínima 3.2 06-10-1970 12:00 -2.2 -- 3.2 2011-09-01 18:10:00
2 1970-11-17 12:00:00 Temperatura 6.0 del 17-11-1970 09:00, Menor que la Mínima 6.2 17-11-1970 12:00 6.0 -- 6.2 2011-09-01 18:10:00
2 1970-12-07 12:00:00 Temperatura 0.6 del 07-12-1970 09:00, Menor que la Mínima 6.0 07-12-1970 12:00 0.6 -- 6.0 2011-09-01 18:11:00
2 1971-06-21 12:00:00 Temperatura -5.2 del 21-06-1971 11:00, Menor que la Mínima -5.0 21-06-1971 12:00 -5.2 -- -5.0 2011-09-01 18:26:00
2 1971-06-23 12:00:00 Temperatura -3.6 del 23-06-1971 11:00, Menor que la Mínima -3.0 23-06-1971 12:00 -3.6 -- -3.0 2011-09-01 18:26:00
2 1971-08-22 12:00:00 Temperatura 1.0 del 22-08-1971 11:00, Menor que la Mínima 1.2 22-08-1971 12:00 1.0 -- 1.2 2011-09-01 18:27:00
2 1971-08-23 12:00:00 Temperatura 0.0 del 23-08-1971 09:00, Menor que la Mínima 1.0 23-08-1971 12:00 0.0 -- 1.0 2011-09-01 18:27:00
2 1971-09-03 12:00:00 Temperatura -1.2 del 03-09-1971 12:00, Menor que la Mínima 1.4 03-09-1971 12:00 -1.2 -- 1.4 2011-09-01 18:27:00
2 1971-11-19 12:00:00 Temperatura 7.2 del 19-11-1971 09:00, Menor que la Mínima 8.9 19-11-1971 12:00 7.2 -- 8.9 2011-09-01 18:28:00
2 1971-12-12 12:00:00 Temperatura 4.8 del 12-12-1971 10:00, Menor que la Mínima 5.1 12-12-1971 12:00 4.8 -- 5.1 2011-09-01 18:29:00
2 1972-03-09 12:00:00 Temperatura 2.5 del 09-03-1972 10:00, Menor que la Mínima 8.6 09-03-1972 12:00 2.5 -- 8.6 2011-09-01 18:44:00
2 1972-04-03 12:00:00 Temperatura 7.0 del 03-04-1972 10:00, Menor que la Mínima 9.6 03-04-1972 12:00 7.0 -- 9.6 2011-09-01 18:44:00
2 1972-05-02 12:00:00 Temperatura 7.6 del 02-05-1972 11:00, Menor que la Mínima 8.8 02-05-1972 12:00 7.6 -- 8.8 2011-09-01 18:45:00
2 1972-05-04 12:00:00 Temperatura 1.0 del 04-05-1972 12:00, Menor que la Mínima 1.2 04-05-1972 12:00 1.0 -- 1.2 2011-09-01 18:45:00
2 1972-06-11 12:00:00 Temperatura 4.5 del 11-06-1972 11:00, Menor que la Mínima 4.8 11-06-1972 12:00 4.5 -- 4.8 2011-09-01 18:46:00
2 1972-10-30 12:00:00 Temperatura 3.0 del 30-10-1972 09:00, Menor que la Mínima 6.2 30-10-1972 12:00 3.0 -- 6.2 2011-09-01 18:49:00
2 1972-12-16 12:00:00 Temperatura 12.8 del 16-12-1972 11:00, Menor que la Mínima 13.4 16-12-1972 12:00 12.8 -- 13.4 2011-09-01 18:50:00
2 1973-01-25 12:00:00 Temperatura 6.0 del 25-01-1973 11:00, Menor que la Mínima 8.2 25-01-1973 12:00 6.0 -- 8.2 2011-09-01 19:04:00
2 1973-01-27 12:00:00 Temperatura 6.8 del 27-01-1973 11:00, Menor que la Mínima 9.1 27-01-1973 12:00 6.8 -- 9.1 2011-09-01 19:04:00
2 1973-05-05 12:00:00 Temperatura 5.0 del 05-05-1973 11:00, Menor que la Mínima 5.8 05-05-1973 12:00 5.0 -- 5.8 2011-09-01 19:07:00
2 1973-06-04 12:00:00 Temperatura 4.5 del 04-06-1973 09:00, Menor que la Mínima 4.7 04-06-1973 12:00 4.5 -- 4.7 2011-09-01 19:07:00
2 1973-07-29 12:00:00 Temperatura -1.6 del 29-07-1973 12:00, Menor que la Mínima 2.0 29-07-1973 12:00 -1.6 -- 2.0 2011-09-01 19:09:00
2 1973-08-01 12:00:00 Temperatura 1.8 del 01-08-1973 12:00, Menor que la Mínima 7.0 01-08-1973 12:00 1.8 -- 7.0 2011-09-01 19:09:00
2 1973-08-02 12:00:00 Temperatura 1.0 del 02-08-1973 09:00, Menor que la Mínima 9.5 02-08-1973 12:00 1.0 -- 9.5 2011-09-01 19:09:00
2 1973-08-08 12:00:00 Temperatura 1.0 del 08-08-1973 09:00, Menor que la Mínima 1.2 08-08-1973 12:00 1.0 -- 1.2 2011-09-01 19:09:00
2 1973-08-17 12:00:00 Temperatura 0.0 del 17-08-1973 09:00, Menor que la Mínima 0.8 17-08-1973 12:00 0.0 -- 0.8 2011-09-01 19:09:00
2 1973-08-24 12:00:00 Temperatura -1.8 del 24-08-1973 12:00, Menor que la Mínima 2.0 24-08-1973 12:00 -1.8 -- 2.0 2011-09-01 19:09:00
2 1973-09-14 12:00:00 Temperatura 2.8 del 14-09-1973 09:00, Menor que la Mínima 3.6 14-09-1973 12:00 2.8 -- 3.6 2011-09-01 19:10:00
2 1973-09-24 12:00:00 Temperatura 1.5 del 24-09-1973 11:00, Menor que la Mínima 1.8 24-09-1973 12:00 1.5 -- 1.8 2011-09-01 19:10:00
2 1973-09-27 12:00:00 Temperatura 0.5 del 27-09-1973 11:00, Menor que la Mínima 1.0 27-09-1973 12:00 0.5 -- 1.0 2011-09-01 19:10:00
2 1973-10-08 12:00:00 Temperatura 0.5 del 08-10-1973 12:00, Menor que la Mínima 4.4 08-10-1973 12:00 0.5 -- 4.4 2011-09-01 19:10:00
2 1973-11-07 12:00:00 Temperatura 2.0 del 07-11-1973 11:00, Menor que la Mínima 15.0 07-11-1973 12:00 2.0 -- 15.0 2011-09-01 19:11:00
2 1974-03-30 12:00:00 Temperatura 10.5 del 30-03-1974 11:00, Menor que la Mínima 11.0 30-03-1974 12:00 10.5 -- 11.0 2011-09-01 19:15:00
2 1974-04-20 12:00:00 Temperatura -3.2 del 20-04-1974 11:00, Menor que la Mínima 5.4 20-04-1974 12:00 -3.2 -- 5.4 2011-09-01 19:16:00
2 1974-04-24 12:00:00 Temperatura 1.2 del 24-04-1974 12:00, Menor que la Mínima 2.8 24-04-1974 12:00 1.2 -- 2.8 2011-09-01 19:16:00
2 1974-07-19 12:00:00 Temperatura 2.8 del 19-07-1974 12:00, Menor que la Mínima 25.0 19-07-1974 12:00 2.8 -- 25.0 2011-09-01 19:18:00
2 1974-09-11 12:00:00 Temperatura -4.8 del 11-09-1974 09:00, Menor que la Mínima 1.8 11-09-1974 12:00 -4.8 -- 1.8 2011-09-01 19:19:00
2 1974-10-12 12:00:00 Temperatura 0.4 del 12-10-1974 09:00, Menor que la Mínima 1.6 12-10-1974 12:00 0.4 -- 1.6 2011-09-01 19:19:00
2 1975-06-01 12:00:00 Temperatura -0.8 del 01-06-1975 11:00, Menor que la Mínima 2.2 01-06-1975 12:00 -0.8 -- 2.2 2011-09-01 19:25:00
2 1975-07-26 12:00:00 Temperatura -2.8 del 26-07-1975 10:00, Menor que la Mínima 3.1 26-07-1975 12:00 -2.8 -- 3.1 2011-09-01 19:26:00
2 1976-02-15 12:00:00 Temperatura 11.5 del 15-02-1976 09:00, Menor que la Mínima 11.7 15-02-1976 12:00 11.5 -- 11.7 2011-09-01 19:38:00
2 1976-03-16 12:00:00 Temperatura 10.8 del 16-03-1976 11:00, Menor que la Mínima 10.9 16-03-1976 12:00 10.8 -- 10.9 2011-09-01 19:38:00
2 1976-06-29 12:00:00 Temperatura -1.4 del 29-06-1976 11:00, Menor que la Mínima 1.5 29-06-1976 12:00 -1.4 -- 1.5 2011-09-01 19:40:00
2 1976-07-07 12:00:00 Temperatura -1.0 del 07-07-1976 11:00, Menor que la Mínima 1.3 07-07-1976 12:00 -1.0 -- 1.3 2011-09-01 19:40:00
2 1976-07-10 12:00:00 Temperatura -4.2 del 10-07-1976 12:00, Menor que la Mínima 4.2 10-07-1976 12:00 -4.2 -- 4.2 2011-09-01 19:40:00
2 1976-07-11 12:00:00 Temperatura -0.6 del 11-07-1976 11:00, Menor que la Mínima 1.5 11-07-1976 12:00 -0.6 -- 1.5 2011-09-01 19:40:00
2 1976-07-12 12:00:00 Temperatura -0.5 del 12-07-1976 12:00, Menor que la Mínima 0.8 12-07-1976 12:00 -0.5 -- 0.8 2011-09-01 19:40:00
2 1976-07-16 12:00:00 Temperatura 2.2 del 16-07-1976 12:00, Menor que la Mínima 6.7 16-07-1976 12:00 2.2 -- 6.7 2011-09-01 19:40:00
2 1976-08-08 12:00:00 Temperatura 3.0 del 08-08-1976 11:00, Menor que la Mínima 3.2 08-08-1976 12:00 3.0 -- 3.2 2011-09-01 19:40:00
2 1976-08-14 12:00:00 Temperatura -2.2 del 14-08-1976 11:00, Menor que la Mínima 3.0 14-08-1976 12:00 -2.2 -- 3.0 2011-09-01 19:40:00
2 1976-11-12 12:00:00 Temperatura 6.6 del 12-11-1976 11:00, Menor que la Mínima 23.8 12-11-1976 12:00 6.6 -- 23.8 2011-09-01 19:42:00
2 1976-12-07 12:00:00 Temperatura 0.3 del 07-12-1976 10:00, Menor que la Mínima 0.4 07-12-1976 12:00 0.3 -- 0.4 2011-09-01 19:43:00
2 1976-12-13 12:00:00 Temperatura 11.9 del 13-12-1976 12:00, Menor que la Mínima 12.0 13-12-1976 12:00 11.9 -- 12.0 2011-09-01 19:43:00
2 1977-01-10 12:00:00 Temperatura 10.7 del 10-01-1977 10:00, Menor que la Mínima 10.8 10-01-1977 12:00 10.7 -- 10.8 2011-09-01 19:48:00
2 1977-02-19 12:00:00 Temperatura 12.6 del 19-02-1977 11:00, Menor que la Mínima 12.7 19-02-1977 12:00 12.6 -- 12.7 2011-09-01 19:49:00
2 1977-03-30 12:00:00 Temperatura 0.0 del 30-03-1977 11:00, Menor que la Mínima 0.5 30-03-1977 12:00 0.0 -- 0.5 2011-09-01 19:50:00
2 1977-05-08 12:00:00 Temperatura 7.2 del 08-05-1977 11:00, Menor que la Mínima 8.0 08-05-1977 12:00 7.2 -- 8.0 2011-09-01 19:51:00
2 1977-07-30 12:00:00 Temperatura -0.2 del 30-07-1977 09:00, Menor que la Mínima 0.4 30-07-1977 12:00 -0.2 -- 0.4 2011-09-01 19:53:00
2 1977-10-13 12:00:00 Temperatura 4.4 del 13-10-1977 10:00, Menor que la Mínima 4.7 13-10-1977 12:00 4.4 -- 4.7 2011-09-01 19:55:00
2 1977-11-01 12:00:00 Temperatura 6.6 del 01-11-1977 11:00, Menor que la Mínima 8.5 01-11-1977 12:00 6.6 -- 8.5 2011-09-01 19:56:00
2 1977-11-21 12:00:00 Temperatura 0.3 del 21-11-1977 11:00, Menor que la Mínima 6.0 21-11-1977 12:00 0.3 -- 6.0 2011-09-01 19:56:00
2 1978-03-16 12:00:00 Temperatura 0.9 del 16-03-1978 09:00, Menor que la Mínima 8.4 16-03-1978 12:00 0.9 -- 8.4 2011-09-01 20:02:00
2 1978-05-28 12:00:00 Temperatura 2.4 del 28-05-1978 10:00, Menor que la Mínima 2.5 28-05-1978 12:00 2.4 -- 2.5 2011-09-01 20:03:00
2 1978-06-05 12:00:00 Temperatura -3.8 del 05-06-1978 12:00, Menor que la Mínima 4.1 05-06-1978 12:00 -3.8 -- 4.1 2011-09-01 20:03:00
2 1978-06-06 12:00:00 Temperatura -2.6 del 06-06-1978 10:00, Menor que la Mínima 3.0 06-06-1978 12:00 -2.6 -- 3.0 2011-09-01 20:03:00
2 1978-06-09 12:00:00 Temperatura -0.5 del 09-06-1978 09:00, Menor que la Mínima 0.0 09-06-1978 12:00 -0.5 -- 0.0 2011-09-01 20:03:00
2 1978-06-10 12:00:00 Temperatura -6.3 del 10-06-1978 11:00, Menor que la Mínima 6.4 10-06-1978 12:00 -6.3 -- 6.4 2011-09-01 20:03:00
2 1978-06-28 12:00:00 Temperatura -2.9 del 28-06-1978 11:00, Menor que la Mínima 3.1 28-06-1978 12:00 -2.9 -- 3.1 2011-09-01 20:04:00
2 1978-07-28 12:00:00 Temperatura -0.1 del 28-07-1978 11:00, Menor que la Mínima 0.3 28-07-1978 12:00 -0.1 -- 0.3 2011-09-01 20:05:00
2 1978-08-05 12:00:00 Temperatura -1.9 del 05-08-1978 09:00, Menor que la Mínima 5.3 05-08-1978 12:00 -1.9 -- 5.3 2011-09-01 20:05:00
2 1978-08-13 12:00:00 Temperatura -2.0 del 13-08-1978 09:00, Menor que la Mínima 2.5 13-08-1978 12:00 -2.0 -- 2.5 2011-09-01 20:05:00
2 1978-08-20 12:00:00 Temperatura -4.0 del 20-08-1978 10:00, Menor que la Mínima 4.2 20-08-1978 12:00 -4.0 -- 4.2 2011-09-01 20:05:00
2 1978-10-24 12:00:00 Temperatura 2.3 del 24-10-1978 11:00, Menor que la Mínima 2.4 24-10-1978 12:00 2.3 -- 2.4 2011-09-01 20:07:00
2 1978-12-01 12:00:00 Temperatura 9.5 del 01-12-1978 11:00, Menor que la Mínima 9.7 01-12-1978 12:00 9.5 -- 9.7 2011-09-01 20:08:00
2 1979-02-25 12:00:00 Temperatura 4.6 del 25-02-1979 12:00, Menor que la Mínima 9.8 25-02-1979 12:00 4.6 -- 9.8 2011-09-01 20:13:00
2 1979-12-26 12:00:00 Temperatura 6.8 del 26-12-1979 10:00, Menor que la Mínima 7.0 26-12-1979 12:00 6.8 -- 7.0 2011-09-01 20:19:00
2 2020-12-04 12:00:00 Temperatura 5.0 del 04-12-2020 06:00, Menor que la Mínima 6.7 04-12-2020 12:00 5.0 -- 6.7 2020-12-04 11:56:00
2 2020-12-11 12:00:00 Temperatura 8.2 del 11-12-2020 06:00, Menor que la Mínima 9.3 11-12-2020 12:00 8.2 -- 9.3 2020-12-11 11:57:00
2 2020-12-14 12:00:00 Temperatura 5.6 del 14-12-2020 06:00, Menor que la Mínima 8.1 14-12-2020 12:00 5.6 -- 8.1 2020-12-14 11:56:00
2 2020-12-22 12:00:00 Temperatura 6.6 del 22-12-2020 06:00, Menor que la Mínima 11.1 22-12-2020 12:00 6.6 -- 11.1 2020-12-22 12:00:00
2 2021-01-13 12:00:00 Temperatura 5.7 del 13-01-2021 06:00, Menor que la Mínima 8.0 13-01-2021 12:00 5.7 -- 8.0 2021-01-13 11:55:00
2 2021-09-12 12:00:00 Temperatura 3.0 del 12-09-2021 06:00, Menor que la Mínima 3.2 12-09-2021 12:00 3.0 -- 3.2 2021-09-16 14:23:00
2 2021-10-12 12:00:00 Temperatura 5.0 del 12-10-2021 06:00, Menor que la Mínima 6.3 12-10-2021 12:00 5.0 -- 6.3 2021-10-12 11:57:00
2 2021-12-22 12:00:00 Temperatura 11.8 del 22-12-2021 06:00, Menor que la Mínima 12.0 22-12-2021 12:00 11.8 -- 12.0 2021-12-22 11:58:00
2 2022-03-20 12:00:00 Temperatura 6.5 del 20-03-2022 06:00, Menor que la Mínima 6.6 20-03-2022 12:00 6.5 -- 6.6 2022-03-31 14:34:00
2 2022-11-16 12:00:00 Temperatura 10.9 del 16-11-2022 06:00, Menor que la Mínima 12.0 16-11-2022 12:00 10.9 -- 12.0 2022-11-16 11:57:00
2 2023-01-05 12:00:00 Temperatura 10.8 del 05-01-2023 06:00, Menor que la Mínima 12.4 05-01-2023 12:00 10.8 -- 12.4 2023-01-05 11:52:00
Errores del Nivel 266
Informe generado el 23-02-2024 11:29
Requerimiento: RE6001